Wetterdaten: Sonntag, 23.08.2015
Datum Zeit Temp. Aussen +5cm Feuchte Auss BlattFeu 1 Luftdruck Regen Sonnenschein Regendauer Solar Windben
23.08.2015 00:00 18,1 C 15,0 C 68 % 0 lf 1013,7 hPa 0,0 l/m 0 min 0 min 0 W/m 6,3 km/h (2 Bft)
23.08.2015 00:02 18,1 C 15,0 C 68 % 0 lf 1013,7 hPa 0,0 l/m 0 min 0 min 0 W/m 0,0 km/h (0 Bft)
23.08.2015 00:05 18,1 C 15,0 C 69 % 0 lf 1013,6 hPa 0,0 l/m 0 min 0 min 0 W/m 6,3 km/h (2 Bft)
23.08.2015 00:07 18,0 C 14,4 C 69 % 0 lf 1013,6 hPa 0,0 l/m 0 min 0 min 0 W/m 6,3 km/h (2 Bft)
23.08.2015 00:08 18,0 C 14,4 C 69 % 0 lf 1013,6 hPa 0,0 l/m 0 min 0 min 0 W/m 6,3 km/h (2 Bft)
23.08.2015 00:10 17,9 C 14,4 C 69 % 0 lf 1013,6 hPa 0,0 l/m 0 min 0 min 0 W/m 6,3 km/h (2 Bft)
23.08.2015 00:12 17,9 C 14,4 C 69 % 0 lf 1013,6 hPa 0,0 l/m 0 min 0 min 0 W/m 4,2 km/h (1 Bft)
23.08.2015 00:14 17,9 C 14,4 C 69 % 0 lf 1013,6 hPa 0,0 l/m 0 min 0 min 0 W/m 4,2 km/h (1 Bft)
23.08.2015 00:16 17,8 C 14,4 C 69 % 0 lf 1013,6 hPa 0,0 l/m 0 min 0 min 0 W/m 6,3 km/h (2 Bft)
23.08.2015 00:18 17,8 C 14,4 C 69 % 0 lf 1013,6 hPa 0,0 l/m 0 min 0 min 0 W/m 4,2 km/h (1 Bft)
23.08.2015 00:20 17,7 C 14,4 C 69 % 0 lf 1013,6 hPa 0,0 l/m 0 min 0 min 0 W/m 10,5 km/h (2 Bft)
23.08.2015 00:22 17,7 C 14,4 C 69 % 0 lf 1013,6 hPa 0,0 l/m 0 min 0 min 0 W/m 10,5 km/h (2 Bft)
23.08.2015 00:24 17,7 C 14,4 C 69 % 0 lf 1013,5 hPa 0,0 l/m 0 min 0 min 0 W/m 10,5 km/h (2 Bft)
23.08.2015 00:26 17,6 C 14,4 C 69 % 0 lf 1013,5 hPa 0,0 l/m 0 min 0 min 0 W/m 8,4 km/h (2 Bft)
23.08.2015 00:28 17,6 C 14,4 C 69 % 0 lf 1013,5 hPa 0,0 l/m 0 min 0 min 0 W/m 6,3 km/h (2 Bft)
23.08.2015 00:30 17,6 C 14,4 C 69 % 0 lf 1013,5 hPa 0,0 l/m 0 min 0 min 0 W/m 6,3 km/h (2 Bft)
23.08.2015 00:32 17,5 C 14,4 C 69 % 0 lf 1013,5 hPa 0,0 l/m 0 min 0 min 0 W/m 8,4 km/h (2 Bft)
23.08.2015 00:34 17,4 C 14,4 C 69 % 0 lf 1013,5 hPa 0,0 l/m 0 min 0 min 0 W/m 6,3 km/h (2 Bft)
23.08.2015 00:36 17,4 C 14,4 C 69 % 0 lf 1013,4 hPa 0,0 l/m 0 min 0 min 0 W/m 10,5 km/h (2 Bft)
23.08.2015 00:38 17,4 C 14,4 C 69 % 0 lf 1013,4 hPa 0,0 l/m 0 min 0 min 0 W/m 6,3 km/h (2 Bft)
23.08.2015 00:40 17,4 C 14,4 C 69 % 0 lf 1013,4 hPa 0,0 l/m 0 min 0 min 0 W/m 10,5 km/h (2 Bft)
23.08.2015 00:42 17,4 C 14,4 C 69 % 0 lf 1013,3 hPa 0,0 l/m 0 min 0 min 0 W/m 6,3 km/h (2 Bft)
23.08.2015 00:44 17,3 C 14,4 C 69 % 0 lf 1013,3 hPa 0,0 l/m 0 min 0 min 0 W/m 6,3 km/h (2 Bft)
23.08.2015 00:46 17,3 C 14,4 C 69 % 0 lf 1013,3 hPa 0,0 l/m 0 min 0 min 0 W/m 6,3 km/h (2 Bft)
23.08.2015 00:48 17,3 C 14,4 C 69 % 0 lf 1013,3 hPa 0,0 l/m 0 min 0 min 0 W/m 6,3 km/h (2 Bft)
23.08.2015 00:50 17,3 C 14,4 C 69 % 0 lf 1013,2 hPa 0,0 l/m 0 min 0 min 0 W/m 6,3 km/h (2 Bft)
23.08.2015 00:52 17,3 C 14,4 C 69 % 0 lf 1013,2 hPa 0,0 l/m 0 min 0 min 0 W/m 6,3 km/h (2 Bft)
23.08.2015 00:54 17,3 C 14,4 C 69 % 0 lf 1013,3 hPa 0,0 l/m 0 min 0 min 0 W/m 4,2 km/h (1 Bft)
23.08.2015 00:56 17,3 C 14,4 C 69 % 0 lf 1013,2 hPa 0,0 l/m 0 min 0 min 0 W/m 6,3 km/h (2 Bft)
23.08.2015 00:58 17,2 C 14,4 C 69 % 0 lf 1013,2 hPa 0,0 l/m 0 min 0 min 0 W/m 6,3 km/h (2 Bft)
23.08.2015 01:00 17,2 C 14,4 C 69 % 0 lf 1013,2 hPa 0,0 l/m 0 min 0 min 0 W/m 6,3 km/h (2 Bft)
23.08.2015 01:02 17,2 C 14,4 C 69 % 0 lf 1013,2 hPa 0,0 l/m 0 min 0 min 0 W/m 6,3 km/h (2 Bft)
23.08.2015 01:04 17,2 C 14,4 C 69 % 0 lf 1013,1 hPa 0,0 l/m 0 min 0 min 0 W/m 4,2 km/h (1 Bft)
23.08.2015 01:06 17,2 C 13,9 C 69 % 0 lf 1013,1 hPa 0,0 l/m 0 min 0 min 0 W/m 6,3 km/h (2 Bft)
23.08.2015 01:08 17,2 C 13,9 C 69 % 0 lf 1013,0 hPa 0,0 l/m 0 min 0 min 0 W/m 6,3 km/h (2 Bft)
23.08.2015 01:10 17,2 C 13,9 C 69 % 0 lf 1013,0 hPa 0,0 l/m 0 min 0 min 0 W/m 4,2 km/h (1 Bft)
23.08.2015 01:12 17,1 C 13,9 C 69 % 0 lf 1013,0 hPa 0,0 l/m 0 min 0 min 0 W/m 6,3 km/h (2 Bft)
23.08.2015 01:14 17,1 C 13,9 C 70 % 0 lf 1013,1 hPa 0,0 l/m 0 min 0 min 0 W/m 6,3 km/h (2 Bft)
23.08.2015 01:16 17,1 C 13,9 C 70 % 0 lf 1013,0 hPa 0,0 l/m 0 min 0 min 0 W/m 6,3 km/h (2 Bft)
23.08.2015 01:18 17,1 C 13,9 C 70 % 0 lf 1013,1 hPa 0,0 l/m 0 min 0 min 0 W/m 6,3 km/h (2 Bft)
23.08.2015 01:20 17,1 C 13,9 C 70 % 0 lf 1013,0 hPa 0,0 l/m 0 min 0 min 0 W/m 6,3 km/h (2 Bft)
23.08.2015 01:22 17,0 C 13,9 C 70 % 0 lf 1013,0 hPa 0,0 l/m 0 min 0 min 0 W/m 6,3 km/h (2 Bft)
23.08.2015 01:24 16,9 C 13,9 C 70 % 0 lf 1012,9 hPa 0,0 l/m 0 min 0 min 0 W/m 8,4 km/h (2 Bft)
23.08.2015 01:26 16,9 C 13,9 C 70 % 0 lf 1012,8 hPa 0,0 l/m 0 min 0 min 0 W/m 6,3 km/h (2 Bft)
23.08.2015 01:28 16,9 C 13,9 C 70 % 0 lf 1012,8 hPa 0,0 l/m 0 min 0 min 0 W/m 10,5 km/h (2 Bft)
23.08.2015 01:30 16,9 C 13,9 C 70 % 0 lf 1012,8 hPa 0,0 l/m 0 min 0 min 0 W/m 8,4 km/h (2 Bft)
23.08.2015 01:32 16,9 C 13,9 C 70 % 0 lf 1012,7 hPa 0,0 l/m 0 min 0 min 0 W/m 8,4 km/h (2 Bft)
23.08.2015 01:34 16,8 C 13,9 C 70 % 0 lf 1012,8 hPa 0,0 l/m 0 min 0 min 0 W/m 8,4 km/h (2 Bft)
23.08.2015 01:36 16,8 C 13,9 C 70 % 0 lf 1012,7 hPa 0,0 l/m 0 min 0 min 0 W/m 6,3 km/h (2 Bft)
23.08.2015 01:38 16,8 C 13,9 C 70 % 0 lf 1012,6 hPa 0,0 l/m 0 min 0 min 0 W/m 8,4 km/h (2 Bft)
23.08.2015 01:40 16,8 C 13,9 C 70 % 0 lf 1012,7 hPa 0,0 l/m 0 min 0 min 0 W/m 6,3 km/h (2 Bft)
23.08.2015 01:42 16,7 C 13,9 C 70 % 0 lf 1012,6 hPa 0,0 l/m 0 min 0 min 0 W/m 8,4 km/h (2 Bft)
23.08.2015 01:44 16,7 C 13,9 C 70 % 0 lf 1012,7 hPa 0,0 l/m 0 min 0 min 0 W/m 8,4 km/h (2 Bft)
23.08.2015 01:46 16,7 C 13,9 C 70 % 0 lf 1012,6 hPa 0,0 l/m 0 min 0 min 0 W/m 6,3 km/h (2 Bft)
23.08.2015 01:48 16,7 C 13,9 C 70 % 0 lf 1012,6 hPa 0,0 l/m 0 min 0 min 0 W/m 6,3 km/h (2 Bft)
23.08.2015 01:50 16,6 C 13,9 C 70 % 0 lf 1012,6 hPa 0,0 l/m 0 min 0 min 0 W/m 6,3 km/h (2 Bft)
23.08.2015 01:52 16,7 C 13,9 C 70 % 0 lf 1012,6 hPa 0,0 l/m 0 min 0 min 0 W/m 6,3 km/h (2 Bft)
23.08.2015 01:54 16,6 C 13,9 C 70 % 0 lf 1012,6 hPa 0,0 l/m 0 min 0 min 0 W/m 4,2 km/h (1 Bft)
23.08.2015 01:56 16,6 C 13,9 C 70 % 0 lf 1012,6 hPa 0,0 l/m 0 min 0 min 0 W/m 6,3 km/h (2 Bft)
23.08.2015 01:58 16,6 C 13,9 C 70 % 0 lf 1012,5 hPa 0,0 l/m 0 min 0 min 0 W/m 6,3 km/h (2 Bft)
23.08.2015 02:00 16,6 C 13,9 C 70 % 0 lf 1012,6 hPa 0,0 l/m 0 min 0 min 0 W/m 4,2 km/h (1 Bft)
23.08.2015 02:02 16,6 C 13,9 C 70 % 0 lf 1012,5 hPa 0,0 l/m 0 min 0 min 0 W/m 4,2 km/h (1 Bft)
23.08.2015 02:04 16,6 C 13,9 C 70 % 0 lf 1012,5 hPa 0,0 l/m 0 min 0 min 0 W/m 6,3 km/h (2 Bft)
23.08.2015 02:06 16,6 C 13,9 C 70 % 0 lf 1012,5 hPa 0,0 l/m 0 min 0 min 0 W/m 4,2 km/h (1 Bft)
23.08.2015 02:08 16,6 C 13,9 C 71 % 0 lf 1012,5 hPa 0,0 l/m 0 min 0 min 0 W/m 4,2 km/h (1 Bft)
23.08.2015 02:10 16,6 C 13,9 C 71 % 0 lf 1012,5 hPa 0,0 l/m 0 min 0 min 0 W/m 6,3 km/h (2 Bft)
23.08.2015 02:12 16,6 C 13,9 C 71 % 0 lf 1012,5 hPa 0,0 l/m 0 min 0 min 0 W/m 4,2 km/h (1 Bft)
23.08.2015 02:14 16,6 C 13,9 C 71 % 0 lf 1012,5 hPa 0,0 l/m 0 min 0 min 0 W/m 8,4 km/h (2 Bft)
23.08.2015 02:16 16,5 C 13,9 C 71 % 0 lf 1012,4 hPa 0,0 l/m 0 min 0 min 0 W/m 8,4 km/h (2 Bft)
23.08.2015 02:18 16,5 C 13,9 C 71 % 0 lf 1012,5 hPa 0,0 l/m 0 min 0 min 0 W/m 14,6 km/h (3 Bft)
23.08.2015 02:20 16,5 C 13,9 C 71 % 0 lf 1012,5 hPa 0,0 l/m 0 min 0 min 0 W/m 6,3 km/h (2 Bft)
23.08.2015 02:22 16,5 C 13,9 C 71 % 0 lf 1012,5 hPa 0,0 l/m 0 min 0 min 0 W/m 4,2 km/h (1 Bft)
23.08.2015 02:24 16,4 C 13,9 C 71 % 0 lf 1012,5 hPa 0,0 l/m 0 min 0 min 0 W/m 4,2 km/h (1 Bft)
23.08.2015 02:26 16,4 C 13,9 C 71 % 0 lf 1012,4 hPa 0,0 l/m 0 min 0 min 0 W/m 6,3 km/h (2 Bft)
23.08.2015 02:28 16,4 C 13,9 C 71 % 0 lf 1012,4 hPa 0,0 l/m 0 min 0 min 0 W/m 4,2 km/h (1 Bft)
23.08.2015 02:30 16,4 C 13,9 C 71 % 0 lf 1012,4 hPa 0,0 l/m 0 min 0 min 0 W/m 6,3 km/h (2 Bft)
23.08.2015 02:32 16,4 C 13,9 C 71 % 0 lf 1012,4 hPa 0,0 l/m 0 min 0 min 0 W/m 6,3 km/h (2 Bft)
23.08.2015 02:34 16,4 C 13,9 C 71 % 0 lf 1012,4 hPa 0,0 l/m 0 min 0 min 0 W/m 4,2 km/h (1 Bft)
23.08.2015 02:36 16,4 C 13,3 C 71 % 0 lf 1012,4 hPa 0,0 l/m 0 min 0 min 0 W/m 4,2 km/h (1 Bft)
23.08.2015 02:38 16,4 C 13,3 C 71 % 0 lf 1012,4 hPa 0,0 l/m 0 min 0 min 0 W/m 6,3 km/h (2 Bft)
23.08.2015 02:40 16,3 C 13,3 C 71 % 0 lf 1012,3 hPa 0,0 l/m 0 min 0 min 0 W/m 8,4 km/h (2 Bft)
23.08.2015 02:42 16,3 C 13,3 C 71 % 0 lf 1012,3 hPa 0,0 l/m 0 min 0 min 0 W/m 6,3 km/h (2 Bft)
23.08.2015 02:44 16,3 C 13,3 C 71 % 0 lf 1012,3 hPa 0,0 l/m 0 min 0 min 0 W/m 4,2 km/h (1 Bft)
23.08.2015 02:46 16,3 C 13,3 C 71 % 0 lf 1012,2 hPa 0,0 l/m 0 min 0 min 0 W/m 4,2 km/h (1 Bft)
23.08.2015 02:48 16,3 C 13,3 C 71 % 0 lf 1012,2 hPa 0,0 l/m 0 min 0 min 0 W/m 6,3 km/h (2 Bft)
23.08.2015 02:50 16,2 C 13,3 C 71 % 0 lf 1012,2 hPa 0,0 l/m 0 min 0 min 0 W/m 6,3 km/h (2 Bft)
23.08.2015 02:52 16,2 C 13,3 C 72 % 0 lf 1012,2 hPa 0,0 l/m 0 min 0 min 0 W/m 6,3 km/h (2 Bft)
23.08.2015 02:54 16,2 C 13,3 C 72 % 0 lf 1012,2 hPa 0,0 l/m 0 min 0 min 0 W/m 4,2 km/h (1 Bft)
23.08.2015 02:56 16,2 C 13,3 C 72 % 0 lf 1012,1 hPa 0,0 l/m 0 min 0 min 0 W/m 6,3 km/h (2 Bft)
23.08.2015 02:58 16,2 C 13,3 C 72 % 0 lf 1012,2 hPa 0,0 l/m 0 min 0 min 0 W/m 6,3 km/h (2 Bft)
23.08.2015 03:00 16,1 C 13,3 C 72 % 0 lf 1012,2 hPa 0,0 l/m 0 min 0 min 0 W/m 4,2 km/h (1 Bft)
23.08.2015 03:02 16,1 C 13,3 C 72 % 0 lf 1012,2 hPa 0,0 l/m 0 min 0 min 0 W/m 8,4 km/h (2 Bft)
23.08.2015 03:04 16,1 C 13,3 C 72 % 0 lf 1012,1 hPa 0,0 l/m 0 min 0 min 0 W/m 6,3 km/h (2 Bft)
23.08.2015 03:06 16,1 C 13,3 C 72 % 0 lf 1012,1 hPa 0,0 l/m 0 min 0 min 0 W/m 8,4 km/h (2 Bft)
23.08.2015 03:08 16,1 C 13,3 C 72 % 0 lf 1012,1 hPa 0,0 l/m 0 min 0 min 0 W/m 6,3 km/h (2 Bft)
23.08.2015 03:10 16,1 C 13,3 C 72 % 0 lf 1012,1 hPa 0,0 l/m 0 min 0 min 0 W/m 4,2 km/h (1 Bft)
23.08.2015 03:12 16,0 C 13,3 C 72 % 0 lf 1012,1 hPa 0,0 l/m 0 min 0 min 0 W/m 2,1 km/h (1 Bft)
23.08.2015 03:14 16,0 C 13,3 C 72 % 0 lf 1012,1 hPa 0,0 l/m 0 min 0 min 0 W/m 4,2 km/h (1 Bft)
23.08.2015 03:16 16,0 C 13,3 C 72 % 0 lf 1012,1 hPa 0,0 l/m 0 min 0 min 0 W/m 6,3 km/h (2 Bft)
23.08.2015 03:18 15,9 C 13,3 C 72 % 0 lf 1012,1 hPa 0,0 l/m 0 min 0 min 0 W/m 6,3 km/h (2 Bft)
23.08.2015 03:20 15,9 C 13,3 C 72 % 0 lf 1012,0 hPa 0,0 l/m 0 min 0 min 0 W/m 4,2 km/h (1 Bft)
23.08.2015 03:22 15,9 C 13,3 C 72 % 0 lf 1012,0 hPa 0,0 l/m 0 min 0 min 0 W/m 10,5 km/h (2 Bft)
23.08.2015 03:24 15,9 C 13,3 C 72 % 0 lf 1012,0 hPa 0,0 l/m 0 min 0 min 0 W/m 6,3 km/h (2 Bft)
23.08.2015 03:26 15,9 C 13,3 C 72 % 0 lf 1011,9 hPa 0,0 l/m 0 min 0 min 0 W/m 6,3 km/h (2 Bft)
23.08.2015 03:28 15,9 C 13,3 C 72 % 0 lf 1011,9 hPa 0,0 l/m 0 min 0 min 0 W/m 4,2 km/h (1 Bft)
23.08.2015 03:30 15,9 C 13,3 C 72 % 0 lf 1011,8 hPa 0,0 l/m 0 min 0 min 0 W/m 8,4 km/h (2 Bft)
23.08.2015 03:32 15,8 C 13,3 C 72 % 0 lf 1011,8 hPa 0,0 l/m 0 min 0 min 0 W/m 6,3 km/h (2 Bft)
23.08.2015 03:34 15,8 C 13,3 C 72 % 0 lf 1011,8 hPa 0,0 l/m 0 min 0 min 0 W/m 6,3 km/h (2 Bft)
23.08.2015 03:36 15,8 C 13,3 C 73 % 0 lf 1011,7 hPa 0,0 l/m 0 min 0 min 0 W/m 6,3 km/h (2 Bft)
23.08.2015 03:38 15,8 C 13,3 C 73 % 0 lf 1011,8 hPa 0,0 l/m 0 min 0 min 0 W/m 6,3 km/h (2 Bft)
23.08.2015 03:40 15,8 C 13,3 C 73 % 0 lf 1011,8 hPa 0,0 l/m 0 min 0 min 0 W/m 8,4 km/h (2 Bft)
23.08.2015 03:42 15,8 C 13,3 C 73 % 0 lf 1011,7 hPa 0,0 l/m 0 min 0 min 0 W/m 6,3 km/h (2 Bft)
23.08.2015 03:44 15,8 C 13,3 C 73 % 0 lf 1011,7 hPa 0,0 l/m 0 min 0 min 0 W/m 4,2 km/h (1 Bft)
23.08.2015 03:46 15,8 C 13,3 C 73 % 0 lf 1011,7 hPa 0,0 l/m 0 min 0 min 0 W/m 6,3 km/h (2 Bft)
23.08.2015 03:48 15,7 C 12,8 C 73 % 0 lf 1011,7 hPa 0,0 l/m 0 min 0 min 0 W/m 6,3 km/h (2 Bft)
23.08.2015 03:50 15,7 C 12,8 C 73 % 0 lf 1011,6 hPa 0,0 l/m 0 min 0 min 0 W/m 8,4 km/h (2 Bft)
23.08.2015 03:52 15,7 C 13,3 C 73 % 0 lf 1011,6 hPa 0,0 l/m 0 min 0 min 0 W/m 8,4 km/h (2 Bft)
23.08.2015 03:54 15,7 C 13,3 C 73 % 0 lf 1011,6 hPa 0,0 l/m 0 min 0 min 0 W/m 6,3 km/h (2 Bft)
23.08.2015 03:56 15,7 C 12,8 C 73 % 0 lf 1011,5 hPa 0,0 l/m 0 min 0 min 0 W/m 4,2 km/h (1 Bft)
23.08.2015 03:58 15,7 C 12,8 C 73 % 0 lf 1011,5 hPa 0,0 l/m 0 min 0 min 0 W/m 4,2 km/h (1 Bft)
23.08.2015 04:00 15,7 C 12,8 C 73 % 0 lf 1011,5 hPa 0,0 l/m 0 min 0 min 0 W/m 6,3 km/h (2 Bft)
23.08.2015 04:02 15,7 C 12,8 C 73 % 0 lf 1011,5 hPa 0,0 l/m 0 min 0 min 0 W/m 8,4 km/h (2 Bft)
23.08.2015 04:07 15,6 C 12,8 C 73 % 0 lf 1011,4 hPa 0,0 l/m 0 min 0 min 0 W/m 6,3 km/h (2 Bft)
23.08.2015 04:08 15,6 C 13,3 C 73 % 0 lf 1011,4 hPa 0,0 l/m 0 min 0 min 0 W/m 6,3 km/h (2 Bft)
23.08.2015 04:10 15,6 C 13,3 C 73 % 0 lf 1011,4 hPa 0,0 l/m 0 min 0 min 0 W/m 8,4 km/h (2 Bft)
23.08.2015 04:12 15,6 C 13,3 C 73 % 0 lf 1011,5 hPa 0,0 l/m 0 min 0 min 0 W/m 10,5 km/h (2 Bft)
23.08.2015 04:14 15,6 C 13,3 C 73 % 0 lf 1011,5 hPa 0,0 l/m 0 min 0 min 0 W/m 8,4 km/h (2 Bft)
23.08.2015 04:16 15,6 C 13,3 C 73 % 0 lf 1011,4 hPa 0,0 l/m 0 min 0 min 0 W/m 8,4 km/h (2 Bft)
23.08.2015 04:18 15,6 C 13,3 C 73 % 0 lf 1011,4 hPa 0,0 l/m 0 min 0 min 0 W/m 8,4 km/h (2 Bft)
23.08.2015 04:20 15,6 C 13,3 C 73 % 0 lf 1011,3 hPa 0,0 l/m 0 min 0 min 0 W/m 8,4 km/h (2 Bft)
23.08.2015 04:22 15,6 C 13,3 C 73 % 0 lf 1011,3 hPa 0,0 l/m 0 min 0 min 0 W/m 6,3 km/h (2 Bft)
23.08.2015 04:24 15,6 C 13,3 C 74 % 0 lf 1011,3 hPa 0,0 l/m 0 min 0 min 0 W/m 8,4 km/h (2 Bft)
23.08.2015 04:26 15,6 C 13,3 C 74 % 0 lf 1011,3 hPa 0,0 l/m 0 min 0 min 0 W/m 8,4 km/h (2 Bft)
23.08.2015 04:28 15,6 C 13,3 C 74 % 0 lf 1011,3 hPa 0,0 l/m 0 min 0 min 0 W/m 6,3 km/h (2 Bft)
23.08.2015 04:30 15,6 C 13,3 C 74 % 0 lf 1011,3 hPa 0,0 l/m 0 min 0 min 0 W/m 6,3 km/h (2 Bft)
23.08.2015 04:32 15,6 C 13,3 C 74 % 0 lf 1011,2 hPa 0,0 l/m 0 min 0 min 0 W/m 6,3 km/h (2 Bft)
23.08.2015 04:34 15,6 C 13,3 C 74 % 0 lf 1011,2 hPa 0,0 l/m 0 min 0 min 0 W/m 8,4 km/h (2 Bft)
23.08.2015 04:36 15,6 C 13,3 C 74 % 0 lf 1011,2 hPa 0,0 l/m 0 min 0 min 0 W/m 8,4 km/h (2 Bft)
23.08.2015 04:38 15,6 C 13,3 C 74 % 0 lf 1011,2 hPa 0,0 l/m 0 min 0 min 0 W/m 8,4 km/h (2 Bft)
23.08.2015 04:40 15,6 C 13,3 C 74 % 0 lf 1011,2 hPa 0,0 l/m 0 min 0 min 0 W/m 8,4 km/h (2 Bft)
23.08.2015 04:42 15,6 C 13,3 C 74 % 0 lf 1011,1 hPa 0,0 l/m 0 min 0 min 0 W/m 8,4 km/h (2 Bft)
23.08.2015 04:44 15,6 C 12,8 C 74 % 0 lf 1011,1 hPa 0,0 l/m 0 min 0 min 0 W/m 6,3 km/h (2 Bft)
23.08.2015 04:46 15,6 C 12,8 C 74 % 0 lf 1011,1 hPa 0,0 l/m 0 min 0 min 0 W/m 8,4 km/h (2 Bft)
23.08.2015 04:48 15,6 C 12,8 C 74 % 0 lf 1011,1 hPa 0,0 l/m 0 min 0 min 0 W/m 8,4 km/h (2 Bft)
23.08.2015 04:50 15,5 C 12,8 C 74 % 0 lf 1011,0 hPa 0,0 l/m 0 min 0 min 0 W/m 8,4 km/h (2 Bft)
23.08.2015 04:52 15,5 C 12,8 C 74 % 0 lf 1011,1 hPa 0,0 l/m 0 min 0 min 0 W/m 6,3 km/h (2 Bft)
23.08.2015 04:54 15,5 C 12,8 C 74 % 0 lf 1011,0 hPa 0,0 l/m 0 min 0 min 0 W/m 8,4 km/h (2 Bft)
23.08.2015 04:56 15,5 C 12,8 C 74 % 0 lf 1011,0 hPa 0,0 l/m 0 min 0 min 0 W/m 6,3 km/h (2 Bft)
23.08.2015 04:58 15,5 C 12,8 C 74 % 0 lf 1011,0 hPa 0,0 l/m 0 min 0 min 0 W/m 6,3 km/h (2 Bft)
23.08.2015 05:00 15,5 C 12,8 C 74 % 0 lf 1010,9 hPa 0,0 l/m 0 min 0 min 0 W/m 6,3 km/h (2 Bft)
23.08.2015 05:02 15,4 C 12,8 C 74 % 0 lf 1011,0 hPa 0,0 l/m 0 min 0 min 0 W/m 8,4 km/h (2 Bft)
23.08.2015 05:04 15,4 C 12,8 C 74 % 0 lf 1011,0 hPa 0,0 l/m 0 min 0 min 0 W/m 6,3 km/h (2 Bft)
23.08.2015 05:06 15,4 C 12,8 C 74 % 0 lf 1010,9 hPa 0,0 l/m 0 min 0 min 0 W/m 6,3 km/h (2 Bft)
23.08.2015 05:08 15,4 C 12,8 C 74 % 0 lf 1010,9 hPa 0,0 l/m 0 min 0 min 0 W/m 4,2 km/h (1 Bft)
23.08.2015 05:10 15,4 C 12,8 C 74 % 0 lf 1010,9 hPa 0,0 l/m 0 min 0 min 0 W/m 4,2 km/h (1 Bft)
23.08.2015 05:12 15,4 C 12,8 C 74 % 0 lf 1010,9 hPa 0,0 l/m 0 min 0 min 0 W/m 6,3 km/h (2 Bft)
23.08.2015 05:14 15,4 C 12,8 C 74 % 0 lf 1010,9 hPa 0,0 l/m 0 min 0 min 0 W/m 4,2 km/h (1 Bft)
23.08.2015 05:16 15,4 C 12,8 C 74 % 0 lf 1010,9 hPa 0,0 l/m 0 min 0 min 0 W/m 4,2 km/h (1 Bft)
23.08.2015 05:18 15,3 C 12,8 C 75 % 0 lf 1010,9 hPa 0,0 l/m 0 min 0 min 0 W/m 4,2 km/h (1 Bft)
23.08.2015 05:20 15,3 C 12,8 C 75 % 0 lf 1010,9 hPa 0,0 l/m 0 min 0 min 0 W/m 2,1 km/h (1 Bft)
23.08.2015 05:22 15,3 C 12,2 C 74 % 0 lf 1010,9 hPa 0,0 l/m 0 min 0 min 0 W/m 2,1 km/h (1 Bft)
23.08.2015 05:24 15,3 C 12,2 C 74 % 0 lf 1010,8 hPa 0,0 l/m 0 min 0 min 0 W/m 2,1 km/h (1 Bft)
23.08.2015 05:26 15,2 C 12,2 C 74 % 0 lf 1010,8 hPa 0,0 l/m 0 min 0 min 0 W/m 2,1 km/h (1 Bft)
23.08.2015 05:28 15,2 C 12,2 C 74 % 0 lf 1010,7 hPa 0,0 l/m 0 min 0 min 0 W/m 2,1 km/h (1 Bft)
23.08.2015 05:30 15,2 C 12,2 C 74 % 0 lf 1010,7 hPa 0,0 l/m 0 min 0 min 0 W/m 2,1 km/h (1 Bft)
23.08.2015 05:32 15,1 C 12,2 C 74 % 0 lf 1010,7 hPa 0,0 l/m 0 min 0 min 0 W/m 2,1 km/h (1 Bft)
23.08.2015 05:34 15,1 C 12,2 C 75 % 0 lf 1010,7 hPa 0,0 l/m 0 min 0 min 0 W/m 2,1 km/h (1 Bft)
23.08.2015 05:36 15,1 C 12,2 C 75 % 0 lf 1010,7 hPa 0,0 l/m 0 min 0 min 0 W/m 2,1 km/h (1 Bft)
23.08.2015 05:38 15,0 C 11,7 C 75 % 0 lf 1010,7 hPa 0,0 l/m 0 min 0 min 0 W/m 0,0 km/h (0 Bft)
23.08.2015 05:40 14,9 C 11,7 C 75 % 0 lf 1010,7 hPa 0,0 l/m 0 min 0 min 0 W/m 0,0 km/h (0 Bft)
23.08.2015 05:42 14,9 C 11,7 C 76 % 0 lf 1010,7 hPa 0,0 l/m 0 min 0 min 0 W/m 0,0 km/h (0 Bft)
23.08.2015 05:44 14,8 C 11,7 C 76 % 0 lf 1010,6 hPa 0,0 l/m 0 min 0 min 0 W/m 0,0 km/h (0 Bft)
23.08.2015 05:46 14,8 C 11,7 C 76 % 0 lf 1010,7 hPa 0,0 l/m 0 min 0 min 0 W/m 0,0 km/h (0 Bft)
23.08.2015 05:48 14,7 C 11,7 C 76 % 0 lf 1010,7 hPa 0,0 l/m 0 min 0 min 0 W/m 0,0 km/h (0 Bft)
23.08.2015 05:50 14,7 C 11,7 C 77 % 0 lf 1010,7 hPa 0,0 l/m 0 min 0 min 0 W/m 0,0 km/h (0 Bft)
23.08.2015 05:52 14,7 C 11,7 C 77 % 0 lf 1010,7 hPa 0,0 l/m 0 min 0 min 0 W/m 0,0 km/h (0 Bft)
23.08.2015 05:54 14,6 C 11,7 C 77 % 0 lf 1010,6 hPa 0,0 l/m 0 min 0 min 0 W/m 0,0 km/h (0 Bft)
23.08.2015 05:56 14,6 C 11,7 C 77 % 0 lf 1010,6 hPa 0,0 l/m 0 min 0 min 0 W/m 0,0 km/h (0 Bft)
23.08.2015 05:58 14,5 C 11,7 C 77 % 0 lf 1010,7 hPa 0,0 l/m 0 min 0 min 0 W/m 0,0 km/h (0 Bft)
23.08.2015 06:00 14,4 C 11,7 C 78 % 0 lf 1010,6 hPa 0,0 l/m 0 min 0 min 0 W/m 0,0 km/h (0 Bft)
23.08.2015 06:02 14,4 C 11,7 C 78 % 0 lf 1010,6 hPa 0,0 l/m 0 min 0 min 0 W/m 0,0 km/h (0 Bft)
23.08.2015 06:05 14,3 C 11,7 C 78 % 0 lf 1010,6 hPa 0,0 l/m 0 min 0 min 0 W/m 0,0 km/h (0 Bft)
23.08.2015 06:08 14,2 C 11,1 C 78 % 0 lf 1010,6 hPa 0,0 l/m 0 min 0 min 0 W/m 0,0 km/h (0 Bft)
23.08.2015 06:10 14,2 C 11,1 C 78 % 0 lf 1010,6 hPa 0,0 l/m 0 min 0 min 0 W/m 0,0 km/h (0 Bft)
23.08.2015 06:12 14,2 C 11,1 C 78 % 0 lf 1010,5 hPa 0,0 l/m 0 min 0 min 0 W/m 2,1 km/h (1 Bft)
23.08.2015 06:14 14,2 C 11,1 C 79 % 0 lf 1010,5 hPa 0,0 l/m 0 min 0 min 0 W/m 2,1 km/h (1 Bft)
23.08.2015 06:16 14,1 C 11,1 C 79 % 0 lf 1010,5 hPa 0,0 l/m 0 min 0 min 0 W/m 0,0 km/h (0 Bft)
23.08.2015 06:18 14,0 C 11,1 C 79 % 0 lf 1010,5 hPa 0,0 l/m 0 min 0 min 0 W/m 0,0 km/h (0 Bft)
23.08.2015 06:20 14,0 C 11,1 C 79 % 0 lf 1010,4 hPa 0,0 l/m 0 min 0 min 0 W/m 0,0 km/h (0 Bft)
23.08.2015 06:22 13,9 C 11,1 C 79 % 0 lf 1010,4 hPa 0,0 l/m 0 min 0 min 0 W/m 2,1 km/h (1 Bft)
23.08.2015 06:24 13,9 C 11,1 C 79 % 0 lf 1010,4 hPa 0,0 l/m 0 min 0 min 3 W/m 2,1 km/h (1 Bft)
23.08.2015 06:26 13,8 C 11,1 C 79 % 0 lf 1010,4 hPa 0,0 l/m 0 min 0 min 5 W/m 2,1 km/h (1 Bft)
23.08.2015 06:28 13,8 C 11,1 C 79 % 0 lf 1010,4 hPa 0,0 l/m 0 min 0 min 5 W/m 2,1 km/h (1 Bft)
23.08.2015 06:30 13,7 C 11,1 C 80 % 0 lf 1010,4 hPa 0,0 l/m 0 min 0 min 6 W/m 2,1 km/h (1 Bft)
23.08.2015 06:32 13,7 C 11,1 C 80 % 0 lf 1010,3 hPa 0,0 l/m 0 min 0 min 7 W/m 2,1 km/h (1 Bft)
23.08.2015 06:34 13,6 C 11,1 C 80 % 0 lf 1010,3 hPa 0,0 l/m 0 min 0 min 7 W/m 2,1 km/h (1 Bft)
23.08.2015 06:36 13,6 C 11,1 C 80 % 0 lf 1010,3 hPa 0,0 l/m 0 min 0 min 8 W/m 4,2 km/h (1 Bft)
23.08.2015 06:38 13,5 C 11,1 C 80 % 0 lf 1010,3 hPa 0,0 l/m 0 min 0 min 9 W/m 4,2 km/h (1 Bft)
23.08.2015 06:40 13,5 C 11,1 C 80 % 0 lf 1010,3 hPa 0,0 l/m 0 min 0 min 11 W/m 2,1 km/h (1 Bft)
23.08.2015 06:42 13,4 C 11,1 C 80 % 0 lf 1010,3 hPa 0,0 l/m 0 min 0 min 11 W/m 4,2 km/h (1 Bft)
23.08.2015 06:44 13,4 C 11,1 C 80 % 0 lf 1010,3 hPa 0,0 l/m 0 min 0 min 12 W/m 4,2 km/h (1 Bft)
23.08.2015 06:46 13,3 C 11,1 C 81 % 0 lf 1010,4 hPa 0,0 l/m 0 min 0 min 13 W/m 4,2 km/h (1 Bft)
23.08.2015 06:48 13,3 C 11,1 C 81 % 0 lf 1010,3 hPa 0,0 l/m 0 min 0 min 14 W/m 2,1 km/h (1 Bft)
23.08.2015 06:50 13,3 C 11,1 C 81 % 0 lf 1010,3 hPa 0,0 l/m 0 min 0 min 16 W/m 4,2 km/h (1 Bft)
23.08.2015 06:52 13,2 C 11,1 C 81 % 0 lf 1010,3 hPa 0,0 l/m 0 min 0 min 18 W/m 4,2 km/h (1 Bft)
23.08.2015 06:54 13,2 C 11,1 C 81 % 0 lf 1010,3 hPa 0,0 l/m 0 min 0 min 19 W/m 4,2 km/h (1 Bft)
23.08.2015 06:56 13,2 C 11,1 C 81 % 0 lf 1010,3 hPa 0,0 l/m 0 min 0 min 20 W/m 2,1 km/h (1 Bft)
23.08.2015 06:58 13,2 C 11,1 C 82 % 0 lf 1010,3 hPa 0,0 l/m 0 min 0 min 22 W/m 4,2 km/h (1 Bft)
23.08.2015 07:00 13,1 C 11,1 C 82 % 0 lf 1010,3 hPa 0,0 l/m 0 min 0 min 23 W/m 4,2 km/h (1 Bft)
23.08.2015 07:02 13,1 C 11,1 C 82 % 0 lf 1010,3 hPa 0,0 l/m 0 min 0 min 26 W/m 4,2 km/h (1 Bft)
23.08.2015 07:04 13,1 C 11,1 C 82 % 0 lf 1010,3 hPa 0,0 l/m 0 min 0 min 32 W/m 2,1 km/h (1 Bft)
23.08.2015 07:06 13,1 C 11,1 C 82 % 0 lf 1010,3 hPa 0,0 l/m 0 min 0 min 35 W/m 2,1 km/h (1 Bft)
23.08.2015 07:08 13,0 C 11,1 C 83 % 0 lf 1010,3 hPa 0,0 l/m 0 min 0 min 38 W/m 2,1 km/h (1 Bft)
23.08.2015 07:10 13,0 C 11,1 C 83 % 0 lf 1010,3 hPa 0,0 l/m 0 min 0 min 41 W/m 4,2 km/h (1 Bft)
23.08.2015 07:12 13,0 C 11,1 C 83 % 0 lf 1010,3 hPa 0,0 l/m 2 min 0 min 45 W/m 2,1 km/h (1 Bft)
23.08.2015 07:14 12,9 C 11,7 C 83 % 0 lf 1010,3 hPa 0,0 l/m 2 min 0 min 48 W/m 4,2 km/h (1 Bft)
23.08.2015 07:16 12,9 C 11,7 C 84 % 0 lf 1010,2 hPa 0,0 l/m 2 min 0 min 50 W/m 4,2 km/h (1 Bft)
23.08.2015 07:18 12,9 C 11,7 C 84 % 0 lf 1010,3 hPa 0,0 l/m 2 min 0 min 56 W/m 2,1 km/h (1 Bft)
23.08.2015 07:20 12,9 C 11,7 C 84 % 0 lf 1010,3 hPa 0,0 l/m 2 min 0 min 59 W/m 4,2 km/h (1 Bft)
23.08.2015 07:22 12,9 C 11,7 C 84 % 0 lf 1010,3 hPa 0,0 l/m 2 min 0 min 62 W/m 6,3 km/h (2 Bft)
23.08.2015 07:24 12,9 C 11,7 C 84 % 0 lf 1010,3 hPa 0,0 l/m 2 min 0 min 65 W/m 6,3 km/h (2 Bft)
23.08.2015 07:26 12,8 C 11,7 C 85 % 0 lf 1010,3 hPa 0,0 l/m 2 min 0 min 69 W/m 4,2 km/h (1 Bft)
23.08.2015 07:28 12,8 C 11,7 C 85 % 0 lf 1010,2 hPa 0,0 l/m 2 min 0 min 71 W/m 4,2 km/h (1 Bft)
23.08.2015 07:30 12,8 C 11,7 C 85 % 0 lf 1010,2 hPa 0,0 l/m 2 min 0 min 73 W/m 6,3 km/h (2 Bft)
23.08.2015 07:32 12,8 C 11,7 C 85 % 0 lf 1010,2 hPa 0,0 l/m 2 min 0 min 76 W/m 8,4 km/h (2 Bft)
23.08.2015 07:34 12,8 C 11,7 C 85 % 0 lf 1010,1 hPa 0,0 l/m 2 min 0 min 79 W/m 6,3 km/h (2 Bft)
23.08.2015 07:36 12,8 C 11,7 C 86 % 0 lf 1010,1 hPa 0,0 l/m 0 min 0 min 61 W/m 6,3 km/h (2 Bft)
23.08.2015 07:38 12,8 C 12,2 C 86 % 0 lf 1010,2 hPa 0,0 l/m 0 min 0 min 51 W/m 4,2 km/h (1 Bft)
23.08.2015 07:40 12,8 C 12,2 C 86 % 0 lf 1010,1 hPa 0,0 l/m 0 min 0 min 73 W/m 6,3 km/h (2 Bft)
23.08.2015 07:42 12,8 C 12,2 C 86 % 0 lf 1010,1 hPa 0,0 l/m 0 min 0 min 72 W/m 6,3 km/h (2 Bft)
23.08.2015 07:44 12,9 C 12,2 C 86 % 0 lf 1010,1 hPa 0,0 l/m 0 min 0 min 63 W/m 4,2 km/h (1 Bft)
23.08.2015 07:46 12,9 C 12,2 C 86 % 0 lf 1010,1 hPa 0,0 l/m 0 min 0 min 69 W/m 6,3 km/h (2 Bft)
23.08.2015 07:48 12,9 C 12,2 C 86 % 0 lf 1010,1 hPa 0,0 l/m 0 min 0 min 81 W/m 6,3 km/h (2 Bft)
23.08.2015 07:50 12,9 C 12,2 C 86 % 0 lf 1010,0 hPa 0,0 l/m 2 min 0 min 102 W/m 4,2 km/h (1 Bft)
23.08.2015 07:52 13,0 C 12,8 C 86 % 0 lf 1009,9 hPa 0,0 l/m 2 min 0 min 111 W/m 4,2 km/h (1 Bft)
23.08.2015 07:54 13,1 C 12,8 C 86 % 0 lf 1009,9 hPa 0,0 l/m 2 min 0 min 132 W/m 4,2 km/h (1 Bft)
23.08.2015 07:56 13,1 C 12,8 C 86 % 0 lf 1009,8 hPa 0,0 l/m 2 min 0 min 148 W/m 6,3 km/h (2 Bft)
23.08.2015 07:58 13,2 C 12,8 C 86 % 0 lf 1009,8 hPa 0,0 l/m 2 min 0 min 157 W/m 6,3 km/h (2 Bft)
23.08.2015 08:00 13,2 C 12,8 C 86 % 0 lf 1009,8 hPa 0,0 l/m 2 min 0 min 166 W/m 6,3 km/h (2 Bft)
23.08.2015 08:02 13,3 C 12,8 C 86 % 0 lf 1009,9 hPa 0,0 l/m 2 min 0 min 175 W/m 6,3 km/h (2 Bft)
23.08.2015 08:04 13,3 C 13,3 C 86 % 0 lf 1009,8 hPa 0,0 l/m 2 min 0 min 181 W/m 8,4 km/h (2 Bft)
23.08.2015 08:06 13,3 C 13,3 C 86 % 0 lf 1009,8 hPa 0,0 l/m 2 min 0 min 185 W/m 6,3 km/h (2 Bft)
23.08.2015 08:08 13,4 C 13,3 C 86 % 0 lf 1009,8 hPa 0,0 l/m 2 min 0 min 191 W/m 8,4 km/h (2 Bft)
23.08.2015 08:10 13,5 C 13,3 C 86 % 0 lf 1009,8 hPa 0,0 l/m 2 min 0 min 196 W/m 6,3 km/h (2 Bft)
23.08.2015 08:12 13,6 C 13,3 C 86 % 0 lf 1009,8 hPa 0,0 l/m 2 min 0 min 200 W/m 6,3 km/h (2 Bft)
23.08.2015 08:14 13,7 C 13,9 C 86 % 0 lf 1009,8 hPa 0,0 l/m 2 min 0 min 205 W/m 6,3 km/h (2 Bft)
23.08.2015 08:16 13,7 C 13,9 C 85 % 0 lf 1009,8 hPa 0,0 l/m 2 min 0 min 211 W/m 6,3 km/h (2 Bft)
23.08.2015 08:18 13,8 C 13,9 C 85 % 0 lf 1009,8 hPa 0,0 l/m 2 min 0 min 214 W/m 6,3 km/h (2 Bft)
23.08.2015 08:20 13,9 C 14,4 C 85 % 0 lf 1009,8 hPa 0,0 l/m 2 min 0 min 220 W/m 8,4 km/h (2 Bft)
23.08.2015 08:22 14,1 C 14,4 C 85 % 0 lf 1009,8 hPa 0,0 l/m 2 min 0 min 225 W/m 6,3 km/h (2 Bft)
23.08.2015 08:24 14,2 C 14,4 C 84 % 0 lf 1009,7 hPa 0,0 l/m 2 min 0 min 231 W/m 8,4 km/h (2 Bft)
23.08.2015 08:26 14,2 C 14,4 C 84 % 0 lf 1009,7 hPa 0,0 l/m 2 min 0 min 238 W/m 8,4 km/h (2 Bft)
23.08.2015 08:28 14,2 C 14,4 C 84 % 0 lf 1009,7 hPa 0,0 l/m 2 min 0 min 243 W/m 8,4 km/h (2 Bft)
23.08.2015 08:30 14,3 C 14,4 C 84 % 0 lf 1009,7 hPa 0,0 l/m 2 min 0 min 249 W/m 8,4 km/h (2 Bft)
23.08.2015 08:32 14,4 C 14,4 C 83 % 0 lf 1009,6 hPa 0,0 l/m 2 min 0 min 255 W/m 8,4 km/h (2 Bft)
23.08.2015 08:34 14,6 C 14,4 C 83 % 0 lf 1009,6 hPa 0,0 l/m 2 min 0 min 259 W/m 10,5 km/h (2 Bft)
23.08.2015 08:36 14,6 C 15,0 C 83 % 0 lf 1009,6 hPa 0,0 l/m 2 min 0 min 265 W/m 8,4 km/h (2 Bft)
23.08.2015 08:38 14,7 C 15,0 C 83 % 0 lf 1009,6 hPa 0,0 l/m 2 min 0 min 273 W/m 12,6 km/h (3 Bft)
23.08.2015 08:40 14,8 C 15,0 C 83 % 0 lf 1009,6 hPa 0,0 l/m 2 min 0 min 278 W/m 10,5 km/h (2 Bft)
23.08.2015 08:42 14,9 C 15,0 C 83 % 0 lf 1009,6 hPa 0,0 l/m 2 min 0 min 283 W/m 10,5 km/h (2 Bft)
23.08.2015 08:44 15,0 C 15,0 C 83 % 0 lf 1009,6 hPa 0,0 l/m 2 min 0 min 289 W/m 10,5 km/h (2 Bft)
23.08.2015 08:46 15,2 C 15,6 C 82 % 0 lf 1009,6 hPa 0,0 l/m 2 min 0 min 294 W/m 10,5 km/h (2 Bft)
23.08.2015 08:48 15,3 C 15,6 C 82 % 0 lf 1009,6 hPa 0,0 l/m 2 min 0 min 300 W/m 8,4 km/h (2 Bft)
23.08.2015 08:50 15,4 C 15,6 C 82 % 0 lf 1009,6 hPa 0,0 l/m 2 min 0 min 304 W/m 12,6 km/h (3 Bft)
23.08.2015 08:52 15,6 C 15,6 C 81 % 0 lf 1009,5 hPa 0,0 l/m 2 min 0 min 309 W/m 16,7 km/h (3 Bft)
23.08.2015 08:54 15,7 C 16,1 C 80 % 0 lf 1009,5 hPa 0,0 l/m 2 min 0 min 315 W/m 14,6 km/h (3 Bft)
23.08.2015 08:56 15,8 C 16,1 C 80 % 0 lf 1009,5 hPa 0,0 l/m 2 min 0 min 322 W/m 10,5 km/h (2 Bft)
23.08.2015 08:58 16,0 C 16,7 C 79 % 0 lf 1009,5 hPa 0,0 l/m 2 min 0 min 327 W/m 16,7 km/h (3 Bft)
23.08.2015 09:00 16,2 C 16,7 C 78 % 0 lf 1009,5 hPa 0,0 l/m 2 min 0 min 332 W/m 16,7 km/h (3 Bft)
23.08.2015 09:02 16,4 C 16,7 C 78 % 0 lf 1009,4 hPa 0,0 l/m 2 min 0 min 337 W/m 18,8 km/h (3 Bft)
23.08.2015 09:04 16,6 C 16,7 C 77 % 0 lf 1009,4 hPa 0,0 l/m 2 min 0 min 345 W/m 18,8 km/h (3 Bft)
23.08.2015 09:06 16,7 C 16,7 C 76 % 0 lf 1009,4 hPa 0,0 l/m 2 min 0 min 350 W/m 14,6 km/h (3 Bft)
23.08.2015 09:08 16,9 C 17,2 C 76 % 0 lf 1009,4 hPa 0,0 l/m 2 min 0 min 356 W/m 18,8 km/h (3 Bft)
23.08.2015 09:10 17,1 C 17,2 C 75 % 0 lf 1009,4 hPa 0,0 l/m 2 min 0 min 361 W/m 18,8 km/h (3 Bft)
23.08.2015 09:12 17,3 C 17,2 C 74 % 0 lf 1009,4 hPa 0,0 l/m 2 min 0 min 366 W/m 14,6 km/h (3 Bft)
23.08.2015 09:14 17,5 C 17,8 C 73 % 0 lf 1009,4 hPa 0,0 l/m 2 min 0 min 372 W/m 23,0 km/h (4 Bft)
23.08.2015 09:16 17,8 C 17,8 C 71 % 0 lf 1009,4 hPa 0,0 l/m 2 min 0 min 378 W/m 18,8 km/h (3 Bft)
23.08.2015 09:18 17,9 C 17,8 C 71 % 0 lf 1009,3 hPa 0,0 l/m 2 min 0 min 381 W/m 23,0 km/h (4 Bft)
23.08.2015 09:20 18,2 C 17,8 C 70 % 0 lf 1009,3 hPa 0,0 l/m 2 min 0 min 386 W/m 23,0 km/h (4 Bft)
23.08.2015 09:22 18,4 C 17,8 C 69 % 0 lf 1009,3 hPa 0,0 l/m 2 min 0 min 392 W/m 23,0 km/h (4 Bft)
23.08.2015 09:24 18,6 C 17,8 C 69 % 0 lf 1009,2 hPa 0,0 l/m 2 min 0 min 397 W/m 18,8 km/h (3 Bft)
23.08.2015 09:26 18,8 C 18,3 C 68 % 0 lf 1009,2 hPa 0,0 l/m 2 min 0 min 404 W/m 25,1 km/h (4 Bft)
23.08.2015 09:28 19,0 C 18,3 C 67 % 0 lf 1009,1 hPa 0,0 l/m 2 min 0 min 408 W/m 23,0 km/h (4 Bft)
23.08.2015 09:30 19,2 C 18,3 C 66 % 0 lf 1009,1 hPa 0,0 l/m 2 min 0 min 414 W/m 14,6 km/h (3 Bft)
23.08.2015 09:32 19,4 C 18,3 C 66 % 0 lf 1009,1 hPa 0,0 l/m 2 min 0 min 418 W/m 27,2 km/h (4 Bft)
23.08.2015 09:34 19,6 C 18,3 C 64 % 0 lf 1009,0 hPa 0,0 l/m 2 min 0 min 423 W/m 27,2 km/h (4 Bft)
23.08.2015 09:36 19,8 C 18,9 C 64 % 0 lf 1009,0 hPa 0,0 l/m 2 min 0 min 428 W/m 29,3 km/h (5 Bft)
23.08.2015 09:38 20,0 C 18,9 C 64 % 0 lf 1009,0 hPa 0,0 l/m 2 min 0 min 433 W/m 20,9 km/h (4 Bft)
23.08.2015 09:40 20,2 C 18,9 C 64 % 0 lf 1009,0 hPa 0,0 l/m 2 min 0 min 440 W/m 12,6 km/h (3 Bft)
23.08.2015 09:42 20,3 C 19,4 C 63 % 0 lf 1008,9 hPa 0,0 l/m 2 min 0 min 446 W/m 23,0 km/h (4 Bft)
23.08.2015 09:44 20,5 C 19,4 C 63 % 0 lf 1008,9 hPa 0,0 l/m 2 min 0 min 450 W/m 20,9 km/h (4 Bft)
23.08.2015 09:46 20,7 C 20,6 C 62 % 0 lf 1008,9 hPa 0,0 l/m 2 min 0 min 455 W/m 25,1 km/h (4 Bft)
23.08.2015 09:48 20,8 C 21,7 C 61 % 0 lf 1008,8 hPa 0,0 l/m 2 min 0 min 460 W/m 20,9 km/h (4 Bft)
23.08.2015 09:50 21,0 C 22,8 C 61 % 0 lf 1008,8 hPa 0,0 l/m 2 min 0 min 464 W/m 29,3 km/h (5 Bft)
23.08.2015 09:52 21,1 C 23,3 C 61 % 0 lf 1008,7 hPa 0,0 l/m 2 min 0 min 469 W/m 25,1 km/h (4 Bft)
23.08.2015 09:54 21,2 C 23,3 C 60 % 0 lf 1008,7 hPa 0,0 l/m 2 min 0 min 476 W/m 18,8 km/h (3 Bft)
23.08.2015 09:56 21,4 C 24,4 C 60 % 0 lf 1008,7 hPa 0,0 l/m 2 min 0 min 481 W/m 23,0 km/h (4 Bft)
23.08.2015 09:58 21,5 C 25,0 C 60 % 0 lf 1008,7 hPa 0,0 l/m 2 min 0 min 485 W/m 29,3 km/h (5 Bft)
23.08.2015 10:00 21,6 C 25,6 C 60 % 0 lf 1008,6 hPa 0,0 l/m 2 min 0 min 491 W/m 27,2 km/h (4 Bft)
23.08.2015 10:02 21,7 C 25,0 C 59 % 0 lf 1008,6 hPa 0,0 l/m 2 min 0 min 497 W/m 31,4 km/h (5 Bft)
23.08.2015 10:04 21,8 C 25,6 C 58 % 0 lf 1008,5 hPa 0,0 l/m 2 min 0 min 501 W/m 31,4 km/h (5 Bft)
23.08.2015 10:06 21,9 C 25,0 C 57 % 0 lf 1008,5 hPa 0,0 l/m 2 min 0 min 510 W/m 41,8 km/h (6 Bft)
23.08.2015 10:08 22,0 C 25,6 C 57 % 0 lf 1008,5 hPa 0,0 l/m 2 min 0 min 522 W/m 29,3 km/h (5 Bft)
23.08.2015 10:10 22,1 C 25,0 C 57 % 0 lf 1008,5 hPa 0,0 l/m 2 min 0 min 502 W/m 18,8 km/h (3 Bft)
23.08.2015 10:12 22,2 C 24,4 C 56 % 0 lf 1008,5 hPa 0,0 l/m 2 min 0 min 493 W/m 27,2 km/h (4 Bft)
23.08.2015 10:14 22,2 C 25,6 C 57 % 0 lf 1008,4 hPa 0,0 l/m 2 min 0 min 511 W/m 16,7 km/h (3 Bft)
23.08.2015 10:16 22,3 C 25,6 C 57 % 0 lf 1008,4 hPa 0,0 l/m 2 min 0 min 502 W/m 23,0 km/h (4 Bft)
23.08.2015 10:18 22,4 C 25,6 C 57 % 0 lf 1008,4 hPa 0,0 l/m 2 min 0 min 484 W/m 20,9 km/h (4 Bft)
23.08.2015 10:20 22,5 C 26,1 C 58 % 0 lf 1008,3 hPa 0,0 l/m 2 min 0 min 464 W/m 16,7 km/h (3 Bft)
23.08.2015 10:22 22,6 C 26,1 C 57 % 0 lf 1008,3 hPa 0,0 l/m 2 min 0 min 509 W/m 20,9 km/h (4 Bft)
23.08.2015 10:24 22,7 C 26,7 C 57 % 0 lf 1008,3 hPa 0,0 l/m 2 min 0 min 543 W/m 18,8 km/h (3 Bft)
23.08.2015 10:26 22,8 C 26,7 C 58 % 0 lf 1008,3 hPa 0,0 l/m 2 min 0 min 540 W/m 18,8 km/h (3 Bft)
23.08.2015 10:28 22,9 C 26,1 C 56 % 0 lf 1008,2 hPa 0,0 l/m 2 min 0 min 564 W/m 31,4 km/h (5 Bft)
23.08.2015 10:30 22,9 C 26,7 C 56 % 0 lf 1008,2 hPa 0,0 l/m 2 min 0 min 560 W/m 20,9 km/h (4 Bft)
23.08.2015 10:32 23,1 C 27,2 C 56 % 0 lf 1008,2 hPa 0,0 l/m 2 min 0 min 552 W/m 27,2 km/h (4 Bft)
23.08.2015 10:34 23,1 C 26,7 C 55 % 0 lf 1008,1 hPa 0,0 l/m 2 min 0 min 567 W/m 31,4 km/h (5 Bft)
23.08.2015 10:36 23,2 C 26,7 C 54 % 0 lf 1008,2 hPa 0,0 l/m 2 min 0 min 570 W/m 46,0 km/h (6 Bft)
23.08.2015 10:38 23,2 C 27,2 C 53 % 0 lf 1008,1 hPa 0,0 l/m 2 min 0 min 580 W/m 33,5 km/h (5 Bft)
23.08.2015 10:40 23,3 C 27,2 C 55 % 0 lf 1008,1 hPa 0,0 l/m 2 min 0 min 584 W/m 29,3 km/h (5 Bft)
23.08.2015 10:42 23,3 C 27,2 C 54 % 0 lf 1008,1 hPa 0,0 l/m 2 min 0 min 587 W/m 35,6 km/h (5 Bft)
23.08.2015 10:44 23,3 C 26,1 C 53 % 0 lf 1008,0 hPa 0,0 l/m 2 min 0 min 591 W/m 35,6 km/h (5 Bft)
23.08.2015 10:46 23,4 C 26,7 C 54 % 0 lf 1008,0 hPa 0,0 l/m 2 min 0 min 596 W/m 33,5 km/h (5 Bft)
23.08.2015 10:48 23,4 C 26,1 C 53 % 0 lf 1008,0 hPa 0,0 l/m 2 min 0 min 600 W/m 33,5 km/h (5 Bft)
23.08.2015 10:50 23,4 C 26,7 C 54 % 0 lf 1008,0 hPa 0,0 l/m 2 min 0 min 607 W/m 31,4 km/h (5 Bft)
23.08.2015 10:52 23,5 C 27,2 C 53 % 0 lf 1007,8 hPa 0,0 l/m 2 min 0 min 627 W/m 29,3 km/h (5 Bft)
23.08.2015 10:54 23,6 C 27,2 C 54 % 0 lf 1007,9 hPa 0,0 l/m 2 min 0 min 626 W/m 39,7 km/h (6 Bft)
23.08.2015 10:56 23,6 C 26,1 C 53 % 0 lf 1007,9 hPa 0,0 l/m 2 min 0 min 538 W/m 31,4 km/h (5 Bft)
23.08.2015 10:58 23,7 C 26,1 C 53 % 0 lf 1007,8 hPa 0,0 l/m 2 min 0 min 566 W/m 27,2 km/h (4 Bft)
23.08.2015 11:00 23,7 C 26,1 C 53 % 0 lf 1007,9 hPa 0,0 l/m 2 min 0 min 598 W/m 33,5 km/h (5 Bft)
23.08.2015 11:02 23,8 C 26,1 C 53 % 0 lf 1007,8 hPa 0,0 l/m 2 min 0 min 613 W/m 29,3 km/h (5 Bft)
23.08.2015 11:04 23,8 C 25,6 C 53 % 0 lf 1007,8 hPa 0,0 l/m 2 min 0 min 628 W/m 35,6 km/h (5 Bft)
23.08.2015 11:06 23,9 C 25,0 C 53 % 0 lf 1007,8 hPa 0,0 l/m 2 min 0 min 636 W/m 29,3 km/h (5 Bft)
23.08.2015 11:08 23,9 C 24,4 C 53 % 0 lf 1007,7 hPa 0,0 l/m 2 min 0 min 640 W/m 27,2 km/h (4 Bft)
23.08.2015 11:10 24,1 C 24,4 C 54 % 0 lf 1007,8 hPa 0,0 l/m 2 min 0 min 638 W/m 35,6 km/h (5 Bft)
23.08.2015 11:12 24,1 C 25,0 C 52 % 0 lf 1007,7 hPa 0,0 l/m 2 min 0 min 646 W/m 37,7 km/h (5 Bft)
23.08.2015 11:14 24,2 C 25,0 C 52 % 0 lf 1007,6 hPa 0,0 l/m 2 min 0 min 649 W/m 35,6 km/h (5 Bft)
23.08.2015 11:16 24,3 C 25,6 C 52 % 0 lf 1007,6 hPa 0,0 l/m 2 min 0 min 653 W/m 33,5 km/h (5 Bft)
23.08.2015 11:18 24,3 C 26,7 C 52 % 0 lf 1007,5 hPa 0,0 l/m 2 min 0 min 656 W/m 29,3 km/h (5 Bft)
23.08.2015 11:20 24,4 C 27,2 C 51 % 0 lf 1007,4 hPa 0,0 l/m 2 min 0 min 661 W/m 35,6 km/h (5 Bft)
23.08.2015 11:22 24,5 C 27,8 C 51 % 0 lf 1007,4 hPa 0,0 l/m 2 min 0 min 665 W/m 39,7 km/h (6 Bft)
23.08.2015 11:24 24,5 C 27,8 C 51 % 0 lf 1007,2 hPa 0,0 l/m 2 min 0 min 667 W/m 33,5 km/h (5 Bft)
23.08.2015 11:26 24,6 C 28,3 C 51 % 0 lf 1007,1 hPa 0,0 l/m 2 min 0 min 672 W/m 31,4 km/h (5 Bft)
23.08.2015 11:28 24,6 C 27,8 C 50 % 0 lf 1007,1 hPa 0,0 l/m 2 min 0 min 678 W/m 31,4 km/h (5 Bft)
23.08.2015 11:30 24,6 C 27,8 C 51 % 0 lf 1007,1 hPa 0,0 l/m 2 min 0 min 678 W/m 37,7 km/h (5 Bft)
23.08.2015 11:32 24,6 C 27,8 C 50 % 0 lf 1007,1 hPa 0,0 l/m 2 min 0 min 682 W/m 31,4 km/h (5 Bft)
23.08.2015 11:34 24,6 C 27,8 C 50 % 0 lf 1007,1 hPa 0,0 l/m 2 min 0 min 683 W/m 35,6 km/h (5 Bft)
23.08.2015 11:36 24,7 C 28,3 C 50 % 0 lf 1007,1 hPa 0,0 l/m 2 min 0 min 689 W/m 33,5 km/h (5 Bft)
23.08.2015 11:38 24,7 C 28,9 C 51 % 0 lf 1007,0 hPa 0,0 l/m 2 min 0 min 692 W/m 33,5 km/h (5 Bft)
23.08.2015 11:40 24,8 C 28,3 C 51 % 0 lf 1007,0 hPa 0,0 l/m 2 min 0 min 692 W/m 37,7 km/h (5 Bft)
23.08.2015 11:42 24,8 C 28,3 C 51 % 0 lf 1007,1 hPa 0,0 l/m 2 min 0 min 695 W/m 37,7 km/h (5 Bft)
23.08.2015 11:44 24,9 C 28,3 C 51 % 0 lf 1006,9 hPa 0,0 l/m 2 min 0 min 696 W/m 33,5 km/h (5 Bft)
23.08.2015 11:46 24,9 C 28,9 C 50 % 0 lf 1006,9 hPa 0,0 l/m 2 min 0 min 700 W/m 29,3 km/h (5 Bft)
23.08.2015 11:48 25,1 C 28,9 C 50 % 0 lf 1006,9 hPa 0,0 l/m 2 min 0 min 704 W/m 29,3 km/h (5 Bft)
23.08.2015 11:50 25,1 C 29,4 C 50 % 0 lf 1006,9 hPa 0,0 l/m 2 min 0 min 706 W/m 29,3 km/h (5 Bft)
23.08.2015 11:52 25,2 C 29,4 C 50 % 0 lf 1006,9 hPa 0,0 l/m 2 min 0 min 712 W/m 33,5 km/h (5 Bft)
23.08.2015 11:54 25,2 C 28,9 C 50 % 0 lf 1007,0 hPa 0,0 l/m 2 min 0 min 715 W/m 35,6 km/h (5 Bft)
23.08.2015 11:56 25,3 C 28,3 C 49 % 0 lf 1006,9 hPa 0,0 l/m 2 min 0 min 717 W/m 33,5 km/h (5 Bft)
23.08.2015 11:58 25,3 C 27,8 C 49 % 0 lf 1007,0 hPa 0,0 l/m 2 min 0 min 719 W/m 35,6 km/h (5 Bft)
23.08.2015 12:00 25,3 C 28,3 C 49 % 0 lf 1006,9 hPa 0,0 l/m 2 min 0 min 710 W/m 31,4 km/h (5 Bft)
23.08.2015 12:02 25,4 C 28,3 C 49 % 0 lf 1006,9 hPa 0,0 l/m 2 min 0 min 651 W/m 29,3 km/h (5 Bft)
23.08.2015 12:05 25,4 C 28,9 C 50 % 0 lf 1006,9 hPa 0,0 l/m 0 min 0 min 151 W/m 27,2 km/h (4 Bft)
23.08.2015 12:08 25,6 C 28,3 C 49 % 0 lf 1006,9 hPa 0,0 l/m 0 min 0 min 261 W/m 35,6 km/h (5 Bft)
23.08.2015 12:10 25,6 C 27,8 C 48 % 0 lf 1006,9 hPa 0,0 l/m 0 min 0 min 115 W/m 33,5 km/h (5 Bft)
23.08.2015 12:12 25,7 C 27,8 C 49 % 0 lf 1006,8 hPa 0,0 l/m 0 min 0 min 126 W/m 31,4 km/h (5 Bft)
23.08.2015 12:14 25,7 C 28,9 C 49 % 0 lf 1006,8 hPa 0,0 l/m 0 min 0 min 311 W/m 35,6 km/h (5 Bft)
23.08.2015 12:16 25,8 C 28,9 C 48 % 0 lf 1006,8 hPa 0,0 l/m 2 min 0 min 641 W/m 33,5 km/h (5 Bft)
23.08.2015 12:18 25,9 C 29,4 C 49 % 0 lf 1006,8 hPa 0,0 l/m 2 min 0 min 735 W/m 27,2 km/h (4 Bft)
23.08.2015 12:20 25,9 C 28,9 C 48 % 0 lf 1006,7 hPa 0,0 l/m 2 min 0 min 745 W/m 41,8 km/h (6 Bft)
23.08.2015 12:22 26,0 C 28,9 C 48 % 0 lf 1006,7 hPa 0,0 l/m 2 min 0 min 746 W/m 37,7 km/h (5 Bft)
23.08.2015 12:24 26,1 C 28,3 C 47 % 0 lf 1006,7 hPa 0,0 l/m 2 min 0 min 747 W/m 39,7 km/h (6 Bft)
23.08.2015 12:26 26,2 C 28,3 C 47 % 0 lf 1006,7 hPa 0,0 l/m 2 min 0 min 751 W/m 33,5 km/h (5 Bft)
23.08.2015 12:28 26,3 C 28,3 C 47 % 0 lf 1006,7 hPa 0,0 l/m 2 min 0 min 763 W/m 43,9 km/h (6 Bft)
23.08.2015 12:30 26,3 C 27,8 C 46 % 0 lf 1006,7 hPa 0,0 l/m 2 min 0 min 765 W/m 35,6 km/h (5 Bft)
23.08.2015 12:32 26,3 C 27,2 C 47 % 0 lf 1006,6 hPa 0,0 l/m 2 min 0 min 763 W/m 35,6 km/h (5 Bft)
23.08.2015 12:34 26,4 C 27,2 C 47 % 0 lf 1006,6 hPa 0,0 l/m 2 min 0 min 760 W/m 37,7 km/h (5 Bft)
23.08.2015 12:36 26,4 C 27,2 C 47 % 0 lf 1006,7 hPa 0,0 l/m 2 min 0 min 758 W/m 33,5 km/h (5 Bft)
23.08.2015 12:38 26,4 C 27,8 C 46 % 0 lf 1006,7 hPa 0,0 l/m 2 min 0 min 761 W/m 39,7 km/h (6 Bft)
23.08.2015 12:40 26,4 C 27,8 C 45 % 0 lf 1006,6 hPa 0,0 l/m 2 min 0 min 763 W/m 39,7 km/h (6 Bft)
23.08.2015 12:42 26,4 C 27,8 C 46 % 0 lf 1006,5 hPa 0,0 l/m 2 min 0 min 763 W/m 35,6 km/h (5 Bft)
23.08.2015 12:44 26,4 C 27,2 C 47 % 0 lf 1006,6 hPa 0,0 l/m 2 min 0 min 765 W/m 35,6 km/h (5 Bft)
23.08.2015 12:46 26,4 C 27,2 C 47 % 0 lf 1006,5 hPa 0,0 l/m 2 min 0 min 768 W/m 37,7 km/h (5 Bft)
23.08.2015 12:48 26,5 C 26,7 C 46 % 0 lf 1006,6 hPa 0,0 l/m 2 min 0 min 765 W/m 39,7 km/h (6 Bft)
23.08.2015 12:50 26,5 C 26,1 C 45 % 0 lf 1006,5 hPa 0,0 l/m 2 min 0 min 764 W/m 52,3 km/h (7 Bft)
23.08.2015 12:52 26,6 C 26,1 C 45 % 0 lf 1006,4 hPa 0,0 l/m 2 min 0 min 764 W/m 35,6 km/h (5 Bft)
23.08.2015 12:54 26,6 C 26,1 C 46 % 0 lf 1006,4 hPa 0,0 l/m 2 min 0 min 771 W/m 33,5 km/h (5 Bft)
23.08.2015 12:56 26,6 C 26,1 C 45 % 0 lf 1006,4 hPa 0,0 l/m 2 min 0 min 771 W/m 37,7 km/h (5 Bft)
23.08.2015 12:58 26,6 C 26,1 C 45 % 0 lf 1006,4 hPa 0,0 l/m 2 min 0 min 768 W/m 41,8 km/h (6 Bft)
23.08.2015 13:00 26,6 C 26,1 C 45 % 0 lf 1006,4 hPa 0,0 l/m 2 min 0 min 770 W/m 48,1 km/h (6 Bft)
23.08.2015 13:02 26,7 C 26,1 C 45 % 0 lf 1006,4 hPa 0,0 l/m 2 min 0 min 768 W/m 33,5 km/h (5 Bft)
23.08.2015 13:04 26,7 C 26,7 C 46 % 0 lf 1006,4 hPa 0,0 l/m 2 min 0 min 772 W/m 52,3 km/h (7 Bft)
23.08.2015 13:06 26,7 C 26,7 C 45 % 0 lf 1006,3 hPa 0,0 l/m 2 min 0 min 775 W/m 56,5 km/h (7 Bft)
23.08.2015 13:08 26,7 C 26,7 C 44 % 0 lf 1006,3 hPa 0,0 l/m 2 min 0 min 780 W/m 46,0 km/h (6 Bft)
23.08.2015 13:10 26,8 C 26,7 C 44 % 0 lf 1006,3 hPa 0,0 l/m 2 min 0 min 783 W/m 48,1 km/h (6 Bft)
23.08.2015 13:12 26,7 C 27,2 C 44 % 0 lf 1006,2 hPa 0,0 l/m 2 min 0 min 781 W/m 39,7 km/h (6 Bft)
23.08.2015 13:14 26,8 C 27,2 C 45 % 0 lf 1006,2 hPa 0,0 l/m 2 min 0 min 785 W/m 31,4 km/h (5 Bft)
23.08.2015 13:16 26,8 C 26,7 C 45 % 0 lf 1006,2 hPa 0,0 l/m 2 min 0 min 787 W/m 37,7 km/h (5 Bft)
23.08.2015 13:18 26,8 C 26,7 C 45 % 0 lf 1006,2 hPa 0,0 l/m 2 min 0 min 788 W/m 29,3 km/h (5 Bft)
23.08.2015 13:20 26,9 C 26,7 C 45 % 0 lf 1006,1 hPa 0,0 l/m 2 min 0 min 788 W/m 25,1 km/h (4 Bft)
23.08.2015 13:22 27,0 C 26,7 C 43 % 0 lf 1006,1 hPa 0,0 l/m 2 min 0 min 790 W/m 35,6 km/h (5 Bft)
23.08.2015 13:24 27,0 C 26,1 C 43 % 0 lf 1006,1 hPa 0,0 l/m 2 min 0 min 798 W/m 27,2 km/h (4 Bft)
23.08.2015 13:26 27,1 C 26,7 C 44 % 0 lf 1006,0 hPa 0,0 l/m 2 min 0 min 799 W/m 31,4 km/h (5 Bft)
23.08.2015 13:28 27,2 C 26,7 C 45 % 0 lf 1006,0 hPa 0,0 l/m 2 min 0 min 801 W/m 50,2 km/h (7 Bft)
23.08.2015 13:30 27,2 C 26,7 C 43 % 0 lf 1006,0 hPa 0,0 l/m 2 min 0 min 808 W/m 50,2 km/h (7 Bft)
23.08.2015 13:32 27,2 C 26,1 C 44 % 0 lf 1006,1 hPa 0,0 l/m 2 min 0 min 624 W/m 37,7 km/h (5 Bft)
23.08.2015 13:34 27,2 C 25,6 C 43 % 0 lf 1006,0 hPa 0,0 l/m 2 min 0 min 468 W/m 43,9 km/h (6 Bft)
23.08.2015 13:36 27,2 C 25,0 C 43 % 0 lf 1006,0 hPa 0,0 l/m 2 min 0 min 516 W/m 43,9 km/h (6 Bft)
23.08.2015 13:38 27,2 C 25,0 C 44 % 0 lf 1005,9 hPa 0,0 l/m 2 min 0 min 669 W/m 31,4 km/h (5 Bft)
23.08.2015 13:40 27,1 C 25,6 C 45 % 0 lf 1005,9 hPa 0,0 l/m 2 min 0 min 583 W/m 35,6 km/h (5 Bft)
23.08.2015 13:42 27,1 C 25,6 C 44 % 0 lf 1005,8 hPa 0,0 l/m 2 min 0 min 776 W/m 39,7 km/h (6 Bft)
23.08.2015 13:44 27,1 C 25,6 C 43 % 0 lf 1005,8 hPa 0,0 l/m 2 min 0 min 811 W/m 50,2 km/h (7 Bft)
23.08.2015 13:46 27,1 C 26,1 C 44 % 0 lf 1005,8 hPa 0,0 l/m 2 min 0 min 819 W/m 37,7 km/h (5 Bft)
23.08.2015 13:48 27,1 C 26,1 C 44 % 0 lf 1005,7 hPa 0,0 l/m 2 min 0 min 816 W/m 31,4 km/h (5 Bft)
23.08.2015 13:50 27,2 C 26,1 C 44 % 0 lf 1005,7 hPa 0,0 l/m 2 min 0 min 786 W/m 33,5 km/h (5 Bft)
23.08.2015 13:52 27,2 C 26,1 C 44 % 0 lf 1005,8 hPa 0,0 l/m 2 min 0 min 739 W/m 33,5 km/h (5 Bft)
23.08.2015 13:54 27,3 C 26,1 C 45 % 0 lf 1005,7 hPa 0,0 l/m 2 min 0 min 675 W/m 16,7 km/h (3 Bft)
23.08.2015 13:56 27,4 C 26,1 C 45 % 0 lf 1005,7 hPa 0,0 l/m 2 min 0 min 670 W/m 46,0 km/h (6 Bft)
23.08.2015 13:58 27,4 C 26,1 C 43 % 0 lf 1005,8 hPa 0,0 l/m 2 min 0 min 734 W/m 37,7 km/h (5 Bft)
23.08.2015 14:00 27,4 C 26,1 C 45 % 0 lf 1005,7 hPa 0,0 l/m 2 min 0 min 737 W/m 33,5 km/h (5 Bft)
23.08.2015 14:02 27,4 C 26,1 C 42 % 0 lf 1005,7 hPa 0,0 l/m 2 min 0 min 702 W/m 43,9 km/h (6 Bft)
23.08.2015 14:04 27,4 C 26,1 C 43 % 0 lf 1005,7 hPa 0,0 l/m 2 min 0 min 732 W/m 33,5 km/h (5 Bft)
23.08.2015 14:06 27,5 C 26,1 C 44 % 0 lf 1005,6 hPa 0,0 l/m 2 min 0 min 706 W/m 27,2 km/h (4 Bft)
23.08.2015 14:08 27,5 C 25,6 C 44 % 0 lf 1005,5 hPa 0,0 l/m 2 min 0 min 705 W/m 35,6 km/h (5 Bft)
23.08.2015 14:10 27,4 C 25,6 C 42 % 0 lf 1005,5 hPa 0,0 l/m 2 min 0 min 673 W/m 39,7 km/h (6 Bft)
23.08.2015 14:12 27,4 C 25,6 C 42 % 0 lf 1005,6 hPa 0,0 l/m 2 min 0 min 691 W/m 29,3 km/h (5 Bft)
23.08.2015 14:14 27,3 C 25,6 C 43 % 0 lf 1005,4 hPa 0,0 l/m 2 min 0 min 759 W/m 41,8 km/h (6 Bft)
23.08.2015 14:16 27,3 C 26,1 C 44 % 0 lf 1005,4 hPa 0,0 l/m 2 min 0 min 790 W/m 35,6 km/h (5 Bft)
23.08.2015 14:18 27,4 C 26,1 C 44 % 0 lf 1005,4 hPa 0,0 l/m 2 min 0 min 716 W/m 33,5 km/h (5 Bft)
23.08.2015 14:20 27,4 C 26,1 C 43 % 0 lf 1005,4 hPa 0,0 l/m 2 min 0 min 701 W/m 33,5 km/h (5 Bft)
23.08.2015 14:22 27,4 C 26,1 C 43 % 0 lf 1005,3 hPa 0,0 l/m 2 min 0 min 771 W/m 39,7 km/h (6 Bft)
23.08.2015 14:24 27,4 C 26,1 C 43 % 0 lf 1005,2 hPa 0,0 l/m 2 min 0 min 808 W/m 31,4 km/h (5 Bft)
23.08.2015 14:26 27,5 C 26,7 C 44 % 0 lf 1005,2 hPa 0,0 l/m 2 min 0 min 803 W/m 27,2 km/h (4 Bft)
23.08.2015 14:28 27,6 C 26,7 C 43 % 0 lf 1005,2 hPa 0,0 l/m 2 min 0 min 801 W/m 31,4 km/h (5 Bft)
23.08.2015 14:30 27,6 C 26,7 C 44 % 0 lf 1005,2 hPa 0,0 l/m 2 min 0 min 774 W/m 23,0 km/h (4 Bft)
23.08.2015 14:32 27,7 C 26,7 C 44 % 0 lf 1005,1 hPa 0,0 l/m 2 min 0 min 784 W/m 25,1 km/h (4 Bft)
23.08.2015 14:34 27,8 C 26,7 C 42 % 0 lf 1005,2 hPa 0,0 l/m 2 min 0 min 780 W/m 39,7 km/h (6 Bft)
23.08.2015 14:36 27,8 C 26,7 C 42 % 0 lf 1005,2 hPa 0,0 l/m 2 min 0 min 785 W/m 41,8 km/h (6 Bft)
23.08.2015 14:38 27,8 C 26,7 C 43 % 0 lf 1005,1 hPa 0,0 l/m 2 min 0 min 764 W/m 54,4 km/h (7 Bft)
23.08.2015 14:40 27,8 C 26,1 C 41 % 0 lf 1005,1 hPa 0,0 l/m 2 min 0 min 712 W/m 43,9 km/h (6 Bft)
23.08.2015 14:42 27,9 C 26,1 C 43 % 0 lf 1005,1 hPa 0,0 l/m 2 min 0 min 670 W/m 25,1 km/h (4 Bft)
23.08.2015 14:44 27,8 C 26,1 C 42 % 0 lf 1005,1 hPa 0,0 l/m 2 min 0 min 676 W/m 35,6 km/h (5 Bft)
23.08.2015 14:46 27,8 C 26,1 C 42 % 0 lf 1005,1 hPa 0,0 l/m 2 min 0 min 652 W/m 43,9 km/h (6 Bft)
23.08.2015 14:48 27,8 C 26,1 C 42 % 0 lf 1005,1 hPa 0,0 l/m 2 min 0 min 762 W/m 35,6 km/h (5 Bft)
23.08.2015 14:50 27,8 C 26,1 C 42 % 0 lf 1005,0 hPa 0,0 l/m 2 min 0 min 772 W/m 29,3 km/h (5 Bft)
23.08.2015 14:52 27,8 C 25,6 C 42 % 0 lf 1005,0 hPa 0,0 l/m 2 min 0 min 629 W/m 37,7 km/h (5 Bft)
23.08.2015 14:54 27,7 C 25,6 C 42 % 0 lf 1005,0 hPa 0,0 l/m 2 min 0 min 541 W/m 37,7 km/h (5 Bft)
23.08.2015 14:56 27,7 C 25,6 C 42 % 0 lf 1004,9 hPa 0,0 l/m 2 min 0 min 678 W/m 35,6 km/h (5 Bft)
23.08.2015 14:58 27,6 C 26,1 C 43 % 0 lf 1004,9 hPa 0,0 l/m 2 min 0 min 758 W/m 20,9 km/h (4 Bft)
23.08.2015 15:00 27,7 C 26,1 C 44 % 0 lf 1004,8 hPa 0,0 l/m 2 min 0 min 770 W/m 25,1 km/h (4 Bft)
23.08.2015 15:02 27,7 C 26,1 C 42 % 0 lf 1004,9 hPa 0,0 l/m 2 min 0 min 764 W/m 33,5 km/h (5 Bft)
23.08.2015 15:04 27,7 C 26,1 C 43 % 0 lf 1004,8 hPa 0,0 l/m 2 min 0 min 766 W/m 33,5 km/h (5 Bft)
23.08.2015 15:06 27,8 C 26,1 C 43 % 0 lf 1004,8 hPa 0,0 l/m 2 min 0 min 761 W/m 43,9 km/h (6 Bft)
23.08.2015 15:08 27,8 C 26,1 C 42 % 0 lf 1004,8 hPa 0,0 l/m 2 min 0 min 677 W/m 35,6 km/h (5 Bft)
23.08.2015 15:10 27,8 C 26,1 C 43 % 0 lf 1004,7 hPa 0,0 l/m 2 min 0 min 628 W/m 37,7 km/h (5 Bft)
23.08.2015 15:12 27,8 C 25,6 C 41 % 0 lf 1004,7 hPa 0,0 l/m 0 min 0 min 337 W/m 35,6 km/h (5 Bft)
23.08.2015 15:14 27,7 C 25,0 C 42 % 0 lf 1004,7 hPa 0,0 l/m 0 min 0 min 173 W/m 33,5 km/h (5 Bft)
23.08.2015 15:16 27,6 C 25,0 C 42 % 0 lf 1004,6 hPa 0,0 l/m 0 min 0 min 240 W/m 35,6 km/h (5 Bft)
23.08.2015 15:18 27,4 C 25,0 C 41 % 0 lf 1004,6 hPa 0,0 l/m 0 min 0 min 244 W/m 46,0 km/h (6 Bft)
23.08.2015 15:20 27,3 C 25,6 C 41 % 0 lf 1004,6 hPa 0,0 l/m 0 min 0 min 244 W/m 39,7 km/h (6 Bft)
23.08.2015 15:22 27,2 C 25,6 C 43 % 0 lf 1004,6 hPa 0,0 l/m 0 min 0 min 332 W/m 31,4 km/h (5 Bft)
23.08.2015 15:24 27,1 C 25,6 C 44 % 0 lf 1004,6 hPa 0,0 l/m 0 min 0 min 336 W/m 33,5 km/h (5 Bft)
23.08.2015 15:26 27,0 C 25,6 C 44 % 0 lf 1004,7 hPa 0,0 l/m 0 min 0 min 336 W/m 31,4 km/h (5 Bft)
23.08.2015 15:28 27,0 C 25,6 C 44 % 0 lf 1004,6 hPa 0,0 l/m 2 min 0 min 382 W/m 29,3 km/h (5 Bft)
23.08.2015 15:30 27,0 C 25,6 C 44 % 0 lf 1004,6 hPa 0,0 l/m 2 min 0 min 766 W/m 35,6 km/h (5 Bft)
23.08.2015 15:32 26,9 C 25,6 C 43 % 0 lf 1004,6 hPa 0,0 l/m 2 min 0 min 386 W/m 33,5 km/h (5 Bft)
23.08.2015 15:34 26,9 C 25,6 C 44 % 0 lf 1004,6 hPa 0,0 l/m 0 min 0 min 255 W/m 29,3 km/h (5 Bft)
23.08.2015 15:36 26,9 C 25,6 C 44 % 0 lf 1004,5 hPa 0,0 l/m 0 min 0 min 230 W/m 35,6 km/h (5 Bft)
23.08.2015 15:38 26,8 C 25,0 C 44 % 0 lf 1004,5 hPa 0,0 l/m 0 min 0 min 229 W/m 37,7 km/h (5 Bft)
23.08.2015 15:40 26,8 C 25,0 C 44 % 0 lf 1004,4 hPa 0,0 l/m 0 min 0 min 245 W/m 31,4 km/h (5 Bft)
23.08.2015 15:42 26,7 C 25,0 C 43 % 0 lf 1004,5 hPa 0,0 l/m 0 min 0 min 273 W/m 39,7 km/h (6 Bft)
23.08.2015 15:44 26,7 C 25,0 C 44 % 0 lf 1004,5 hPa 0,0 l/m 0 min 0 min 311 W/m 41,8 km/h (6 Bft)
23.08.2015 15:46 26,6 C 25,6 C 44 % 0 lf 1004,5 hPa 0,0 l/m 2 min 0 min 372 W/m 27,2 km/h (4 Bft)
23.08.2015 15:48 26,7 C 25,6 C 44 % 0 lf 1004,6 hPa 0,0 l/m 2 min 0 min 671 W/m 29,3 km/h (5 Bft)
23.08.2015 15:50 26,7 C 25,6 C 44 % 0 lf 1004,6 hPa 0,0 l/m 2 min 0 min 529 W/m 29,3 km/h (5 Bft)
23.08.2015 15:52 26,7 C 25,6 C 45 % 0 lf 1004,5 hPa 0,0 l/m 0 min 0 min 288 W/m 18,8 km/h (3 Bft)
23.08.2015 15:54 26,7 C 25,6 C 45 % 0 lf 1004,5 hPa 0,0 l/m 0 min 0 min 259 W/m 23,0 km/h (4 Bft)
23.08.2015 15:56 26,7 C 25,6 C 45 % 0 lf 1004,5 hPa 0,0 l/m 0 min 0 min 251 W/m 31,4 km/h (5 Bft)
23.08.2015 15:58 26,6 C 25,0 C 44 % 0 lf 1004,4 hPa 0,0 l/m 0 min 0 min 252 W/m 33,5 km/h (5 Bft)
23.08.2015 16:00 26,6 C 25,0 C 45 % 0 lf 1004,5 hPa 0,0 l/m 0 min 0 min 253 W/m 23,0 km/h (4 Bft)
23.08.2015 16:02 26,6 C 25,0 C 44 % 0 lf 1004,4 hPa 0,0 l/m 0 min 0 min 271 W/m 27,2 km/h (4 Bft)
23.08.2015 16:04 26,6 C 25,0 C 45 % 0 lf 1004,4 hPa 0,0 l/m 0 min 0 min 278 W/m 25,1 km/h (4 Bft)
23.08.2015 16:06 26,5 C 25,0 C 45 % 0 lf 1004,4 hPa 0,0 l/m 0 min 0 min 285 W/m 31,4 km/h (5 Bft)
23.08.2015 16:08 26,5 C 25,6 C 46 % 0 lf 1004,4 hPa 0,0 l/m 2 min 0 min 362 W/m 35,6 km/h (5 Bft)
23.08.2015 16:10 26,5 C 25,6 C 45 % 0 lf 1004,4 hPa 0,0 l/m 2 min 0 min 387 W/m 31,4 km/h (5 Bft)
23.08.2015 16:12 26,6 C 25,6 C 46 % 0 lf 1004,3 hPa 0,0 l/m 2 min 0 min 339 W/m 33,5 km/h (5 Bft)
23.08.2015 16:14 26,6 C 25,6 C 45 % 0 lf 1004,3 hPa 0,0 l/m 2 min 0 min 327 W/m 46,0 km/h (6 Bft)
23.08.2015 16:16 26,6 C 25,0 C 45 % 0 lf 1004,3 hPa 0,0 l/m 2 min 0 min 332 W/m 43,9 km/h (6 Bft)
23.08.2015 16:18 26,5 C 25,0 C 45 % 0 lf 1004,3 hPa 0,0 l/m 0 min 0 min 181 W/m 29,3 km/h (5 Bft)
23.08.2015 16:20 26,5 C 24,4 C 46 % 0 lf 1004,2 hPa 0,0 l/m 0 min 0 min 207 W/m 23,0 km/h (4 Bft)
23.08.2015 16:22 26,4 C 24,4 C 45 % 0 lf 1004,2 hPa 0,0 l/m 0 min 0 min 163 W/m 27,2 km/h (4 Bft)
23.08.2015 16:24 26,4 C 24,4 C 45 % 0 lf 1004,2 hPa 0,0 l/m 0 min 0 min 176 W/m 31,4 km/h (5 Bft)
23.08.2015 16:26 26,4 C 24,4 C 45 % 0 lf 1004,2 hPa 0,0 l/m 0 min 0 min 199 W/m 27,2 km/h (4 Bft)
23.08.2015 16:28 26,3 C 24,4 C 45 % 0 lf 1004,2 hPa 0,0 l/m 0 min 0 min 203 W/m 31,4 km/h (5 Bft)
23.08.2015 16:30 26,3 C 24,4 C 45 % 0 lf 1004,2 hPa 0,0 l/m 0 min 0 min 202 W/m 31,4 km/h (5 Bft)
23.08.2015 16:32 26,3 C 25,0 C 45 % 0 lf 1004,2 hPa 0,0 l/m 0 min 0 min 216 W/m 33,5 km/h (5 Bft)
23.08.2015 16:34 26,3 C 25,0 C 45 % 0 lf 1004,2 hPa 0,0 l/m 0 min 0 min 252 W/m 29,3 km/h (5 Bft)
23.08.2015 16:36 26,3 C 25,0 C 46 % 0 lf 1004,0 hPa 0,0 l/m 0 min 0 min 246 W/m 20,9 km/h (4 Bft)
23.08.2015 16:38 26,3 C 25,0 C 45 % 0 lf 1003,9 hPa 0,0 l/m 0 min 0 min 248 W/m 25,1 km/h (4 Bft)
23.08.2015 16:40 26,3 C 25,0 C 46 % 0 lf 1004,1 hPa 0,0 l/m 0 min 0 min 265 W/m 23,0 km/h (4 Bft)
23.08.2015 16:42 26,2 C 25,0 C 46 % 0 lf 1003,9 hPa 0,0 l/m 0 min 0 min 260 W/m 29,3 km/h (5 Bft)
23.08.2015 16:44 26,3 C 25,0 C 47 % 0 lf 1003,9 hPa 0,0 l/m 2 min 0 min 290 W/m 27,2 km/h (4 Bft)
23.08.2015 16:46 26,3 C 25,0 C 47 % 0 lf 1003,8 hPa 0,0 l/m 2 min 0 min 358 W/m 23,0 km/h (4 Bft)
23.08.2015 16:48 26,3 C 25,6 C 46 % 0 lf 1003,7 hPa 0,0 l/m 2 min 0 min 409 W/m 29,3 km/h (5 Bft)
23.08.2015 16:50 26,3 C 25,6 C 46 % 0 lf 1003,7 hPa 0,0 l/m 2 min 0 min 371 W/m 25,1 km/h (4 Bft)
23.08.2015 16:52 26,4 C 25,6 C 45 % 0 lf 1003,7 hPa 0,0 l/m 2 min 0 min 424 W/m 31,4 km/h (5 Bft)
23.08.2015 16:54 26,4 C 25,6 C 46 % 0 lf 1003,7 hPa 0,0 l/m 2 min 0 min 366 W/m 25,1 km/h (4 Bft)
23.08.2015 16:56 26,4 C 25,6 C 46 % 0 lf 1003,7 hPa 0,0 l/m 2 min 0 min 386 W/m 25,1 km/h (4 Bft)
23.08.2015 16:58 26,5 C 25,6 C 46 % 0 lf 1003,5 hPa 0,0 l/m 2 min 0 min 308 W/m 31,4 km/h (5 Bft)
23.08.2015 17:00 26,5 C 25,6 C 46 % 0 lf 1003,5 hPa 0,0 l/m 0 min 0 min 262 W/m 20,9 km/h (4 Bft)
23.08.2015 17:02 26,6 C 25,6 C 45 % 0 lf 1003,5 hPa 0,0 l/m 2 min 0 min 270 W/m 39,7 km/h (6 Bft)
23.08.2015 17:04 26,6 C 25,0 C 44 % 0 lf 1003,4 hPa 0,0 l/m 2 min 0 min 274 W/m 33,5 km/h (5 Bft)
23.08.2015 17:06 26,5 C 25,0 C 45 % 0 lf 1003,4 hPa 0,0 l/m 2 min 0 min 278 W/m 27,2 km/h (4 Bft)
23.08.2015 17:08 26,5 C 25,6 C 45 % 0 lf 1003,3 hPa 0,0 l/m 2 min 0 min 284 W/m 20,9 km/h (4 Bft)
23.08.2015 17:10 26,6 C 25,6 C 45 % 0 lf 1003,2 hPa 0,0 l/m 2 min 0 min 291 W/m 27,2 km/h (4 Bft)
23.08.2015 17:12 26,6 C 25,6 C 45 % 0 lf 1003,3 hPa 0,0 l/m 2 min 0 min 266 W/m 29,3 km/h (5 Bft)
23.08.2015 17:14 26,6 C 25,0 C 45 % 0 lf 1003,2 hPa 0,0 l/m 2 min 0 min 276 W/m 29,3 km/h (5 Bft)
23.08.2015 17:16 26,6 C 25,0 C 45 % 0 lf 1003,3 hPa 0,0 l/m 2 min 0 min 286 W/m 33,5 km/h (5 Bft)
23.08.2015 17:18 26,6 C 25,0 C 44 % 0 lf 1003,2 hPa 0,0 l/m 2 min 0 min 278 W/m 46,0 km/h (6 Bft)
23.08.2015 17:20 26,5 C 25,0 C 43 % 0 lf 1003,2 hPa 0,0 l/m 2 min 0 min 268 W/m 43,9 km/h (6 Bft)
23.08.2015 17:22 26,5 C 25,0 C 44 % 0 lf 1003,2 hPa 0,0 l/m 2 min 0 min 258 W/m 46,0 km/h (6 Bft)
23.08.2015 17:24 26,4 C 25,0 C 44 % 0 lf 1003,2 hPa 0,0 l/m 2 min 0 min 243 W/m 27,2 km/h (4 Bft)
23.08.2015 17:26 26,4 C 25,0 C 44 % 0 lf 1003,3 hPa 0,0 l/m 2 min 0 min 238 W/m 33,5 km/h (5 Bft)
23.08.2015 17:28 26,4 C 25,0 C 44 % 0 lf 1003,3 hPa 0,0 l/m 0 min 0 min 231 W/m 46,0 km/h (6 Bft)
23.08.2015 17:30 26,3 C 25,0 C 44 % 0 lf 1003,2 hPa 0,0 l/m 0 min 0 min 222 W/m 35,6 km/h (5 Bft)
23.08.2015 17:32 26,3 C 25,0 C 44 % 0 lf 1003,1 hPa 0,0 l/m 0 min 0 min 214 W/m 31,4 km/h (5 Bft)
23.08.2015 17:34 26,3 C 24,4 C 44 % 0 lf 1003,1 hPa 0,0 l/m 0 min 0 min 207 W/m 31,4 km/h (5 Bft)
23.08.2015 17:36 26,3 C 24,4 C 44 % 0 lf 1003,1 hPa 0,0 l/m 0 min 0 min 200 W/m 27,2 km/h (4 Bft)
23.08.2015 17:38 26,2 C 24,4 C 44 % 0 lf 1003,0 hPa 0,0 l/m 0 min 0 min 195 W/m 29,3 km/h (5 Bft)
23.08.2015 17:40 26,2 C 24,4 C 44 % 0 lf 1003,1 hPa 0,0 l/m 0 min 0 min 190 W/m 23,0 km/h (4 Bft)
23.08.2015 17:42 26,2 C 24,4 C 46 % 0 lf 1003,1 hPa 0,0 l/m 0 min 0 min 187 W/m 27,2 km/h (4 Bft)
23.08.2015 17:44 26,2 C 24,4 C 44 % 0 lf 1003,0 hPa 0,0 l/m 0 min 0 min 182 W/m 37,7 km/h (5 Bft)
23.08.2015 17:46 26,1 C 24,4 C 44 % 0 lf 1003,0 hPa 0,0 l/m 0 min 0 min 174 W/m 37,7 km/h (5 Bft)
23.08.2015 17:48 26,1 C 24,4 C 44 % 0 lf 1003,0 hPa 0,0 l/m 0 min 0 min 170 W/m 35,6 km/h (5 Bft)
23.08.2015 17:50 26,1 C 24,4 C 45 % 0 lf 1003,0 hPa 0,0 l/m 0 min 0 min 164 W/m 33,5 km/h (5 Bft)
23.08.2015 17:52 26,0 C 24,4 C 45 % 0 lf 1002,9 hPa 0,0 l/m 0 min 0 min 160 W/m 18,8 km/h (3 Bft)
23.08.2015 17:54 26,0 C 24,4 C 45 % 0 lf 1003,0 hPa 0,0 l/m 0 min 0 min 156 W/m 37,7 km/h (5 Bft)
23.08.2015 17:56 25,9 C 24,4 C 45 % 0 lf 1003,0 hPa 0,0 l/m 0 min 0 min 152 W/m 33,5 km/h (5 Bft)
23.08.2015 17:58 25,9 C 24,4 C 45 % 0 lf 1003,0 hPa 0,0 l/m 0 min 0 min 149 W/m 29,3 km/h (5 Bft)
23.08.2015 18:00 25,9 C 24,4 C 45 % 0 lf 1002,9 hPa 0,0 l/m 0 min 0 min 147 W/m 37,7 km/h (5 Bft)
23.08.2015 18:02 25,8 C 23,9 C 45 % 0 lf 1002,9 hPa 0,0 l/m 0 min 0 min 142 W/m 29,3 km/h (5 Bft)
23.08.2015 18:05 25,8 C 24,4 C 45 % 0 lf 1002,9 hPa 0,0 l/m 0 min 0 min 141 W/m 31,4 km/h (5 Bft)
23.08.2015 18:08 25,8 C 24,4 C 45 % 0 lf 1002,9 hPa 0,0 l/m 0 min 0 min 141 W/m 31,4 km/h (5 Bft)
23.08.2015 18:10 25,7 C 24,4 C 46 % 0 lf 1002,9 hPa 0,0 l/m 0 min 0 min 139 W/m 37,7 km/h (5 Bft)
23.08.2015 18:12 25,7 C 24,4 C 46 % 0 lf 1002,9 hPa 0,0 l/m 0 min 0 min 137 W/m 27,2 km/h (4 Bft)
23.08.2015 18:14 25,7 C 23,9 C 46 % 0 lf 1002,9 hPa 0,0 l/m 0 min 0 min 132 W/m 23,0 km/h (4 Bft)
23.08.2015 18:16 25,7 C 23,9 C 46 % 0 lf 1002,9 hPa 0,0 l/m 0 min 0 min 127 W/m 18,8 km/h (3 Bft)
23.08.2015 18:18 25,7 C 23,9 C 46 % 0 lf 1002,9 hPa 0,0 l/m 0 min 0 min 122 W/m 33,5 km/h (5 Bft)
23.08.2015 18:20 25,7 C 23,9 C 46 % 0 lf 1002,9 hPa 0,0 l/m 0 min 0 min 116 W/m 20,9 km/h (4 Bft)
23.08.2015 18:22 25,6 C 23,9 C 46 % 0 lf 1002,8 hPa 0,0 l/m 0 min 0 min 112 W/m 23,0 km/h (4 Bft)
23.08.2015 18:24 25,6 C 23,9 C 46 % 0 lf 1002,8 hPa 0,0 l/m 0 min 0 min 110 W/m 27,2 km/h (4 Bft)
23.08.2015 18:26 25,6 C 23,9 C 46 % 0 lf 1002,8 hPa 0,0 l/m 0 min 0 min 105 W/m 29,3 km/h (5 Bft)
23.08.2015 18:28 25,6 C 23,9 C 46 % 0 lf 1002,8 hPa 0,0 l/m 0 min 0 min 102 W/m 31,4 km/h (5 Bft)
23.08.2015 18:30 25,5 C 23,9 C 47 % 0 lf 1002,8 hPa 0,0 l/m 0 min 0 min 99 W/m 33,5 km/h (5 Bft)
23.08.2015 18:32 25,5 C 23,9 C 46 % 0 lf 1002,8 hPa 0,0 l/m 0 min 0 min 97 W/m 25,1 km/h (4 Bft)
23.08.2015 18:34 25,4 C 23,3 C 47 % 0 lf 1002,8 hPa 0,0 l/m 0 min 0 min 97 W/m 27,2 km/h (4 Bft)
23.08.2015 18:36 25,4 C 23,3 C 47 % 0 lf 1002,8 hPa 0,0 l/m 0 min 0 min 93 W/m 27,2 km/h (4 Bft)
23.08.2015 18:38 25,4 C 23,3 C 47 % 0 lf 1002,8 hPa 0,0 l/m 0 min 0 min 91 W/m 27,2 km/h (4 Bft)
23.08.2015 18:40 25,3 C 23,3 C 47 % 0 lf 1002,8 hPa 0,0 l/m 0 min 0 min 88 W/m 27,2 km/h (4 Bft)
23.08.2015 18:42 25,3 C 23,3 C 47 % 0 lf 1002,9 hPa 0,0 l/m 0 min 0 min 84 W/m 29,3 km/h (5 Bft)
23.08.2015 18:44 25,3 C 23,3 C 47 % 0 lf 1002,9 hPa 0,0 l/m 0 min 0 min 77 W/m 27,2 km/h (4 Bft)
23.08.2015 18:46 25,3 C 23,3 C 47 % 0 lf 1002,9 hPa 0,0 l/m 0 min 0 min 69 W/m 23,0 km/h (4 Bft)
23.08.2015 18:48 25,2 C 23,3 C 47 % 0 lf 1002,9 hPa 0,0 l/m 0 min 0 min 62 W/m 29,3 km/h (5 Bft)
23.08.2015 18:50 25,2 C 23,3 C 47 % 0 lf 1002,9 hPa 0,0 l/m 0 min 0 min 57 W/m 31,4 km/h (5 Bft)
23.08.2015 18:52 25,1 C 23,3 C 47 % 0 lf 1002,9 hPa 0,0 l/m 0 min 0 min 51 W/m 23,0 km/h (4 Bft)
23.08.2015 18:54 25,1 C 23,3 C 47 % 0 lf 1002,9 hPa 0,0 l/m 0 min 0 min 43 W/m 18,8 km/h (3 Bft)
23.08.2015 18:56 25,1 C 23,3 C 47 % 0 lf 1002,9 hPa 0,0 l/m 0 min 0 min 39 W/m 23,0 km/h (4 Bft)
23.08.2015 18:58 25,1 C 22,8 C 48 % 0 lf 1002,8 hPa 0,0 l/m 0 min 0 min 35 W/m 18,8 km/h (3 Bft)
23.08.2015 19:00 25,1 C 22,8 C 48 % 0 lf 1002,8 hPa 0,0 l/m 0 min 0 min 35 W/m 20,9 km/h (4 Bft)
23.08.2015 19:02 25,1 C 22,8 C 47 % 0 lf 1002,8 hPa 0,0 l/m 0 min 0 min 34 W/m 31,4 km/h (5 Bft)
23.08.2015 19:04 25,0 C 22,8 C 47 % 0 lf 1002,8 hPa 0,0 l/m 0 min 0 min 33 W/m 25,1 km/h (4 Bft)
23.08.2015 19:06 25,0 C 22,8 C 48 % 0 lf 1002,8 hPa 0,0 l/m 0 min 0 min 32 W/m 18,8 km/h (3 Bft)
23.08.2015 19:08 24,9 C 22,8 C 48 % 0 lf 1002,7 hPa 0,0 l/m 0 min 0 min 32 W/m 18,8 km/h (3 Bft)
23.08.2015 19:10 24,9 C 22,8 C 48 % 0 lf 1002,8 hPa 0,0 l/m 0 min 0 min 33 W/m 23,0 km/h (4 Bft)
23.08.2015 19:12 24,9 C 22,8 C 48 % 0 lf 1002,8 hPa 0,0 l/m 0 min 0 min 35 W/m 18,8 km/h (3 Bft)
23.08.2015 19:14 24,8 C 22,8 C 48 % 0 lf 1002,9 hPa 0,0 l/m 0 min 0 min 33 W/m 16,7 km/h (3 Bft)
23.08.2015 19:16 24,8 C 22,8 C 48 % 0 lf 1003,1 hPa 0,0 l/m 0 min 0 min 31 W/m 14,6 km/h (3 Bft)
23.08.2015 19:18 24,8 C 22,2 C 49 % 0 lf 1003,4 hPa 0,0 l/m 0 min 0 min 32 W/m 20,9 km/h (4 Bft)
23.08.2015 19:20 24,7 C 22,2 C 50 % 0 lf 1003,4 hPa 0,0 l/m 0 min 0 min 36 W/m 25,1 km/h (4 Bft)
23.08.2015 19:22 24,7 C 22,2 C 51 % 0 lf 1003,4 hPa 0,0 l/m 0 min 0 min 36 W/m 18,8 km/h (3 Bft)
23.08.2015 19:24 24,7 C 22,2 C 51 % 0 lf 1003,5 hPa 0,0 l/m 0 min 0 min 32 W/m 25,1 km/h (4 Bft)
23.08.2015 19:26 24,6 C 22,2 C 51 % 0 lf 1003,4 hPa 0,0 l/m 0 min 0 min 27 W/m 20,9 km/h (4 Bft)
23.08.2015 19:28 24,6 C 22,2 C 52 % 0 lf 1003,5 hPa 0,0 l/m 0 min 0 min 24 W/m 18,8 km/h (3 Bft)
23.08.2015 19:30 24,5 C 21,7 C 52 % 0 lf 1003,5 hPa 0,0 l/m 0 min 0 min 22 W/m 18,8 km/h (3 Bft)
23.08.2015 19:32 24,4 C 21,7 C 54 % 0 lf 1003,5 hPa 0,0 l/m 0 min 0 min 23 W/m 23,0 km/h (4 Bft)
23.08.2015 19:34 24,3 C 21,7 C 57 % 0 lf 1003,6 hPa 0,0 l/m 0 min 0 min 23 W/m 23,0 km/h (4 Bft)
23.08.2015 19:36 24,2 C 21,7 C 58 % 0 lf 1003,6 hPa 0,0 l/m 0 min 0 min 23 W/m 14,6 km/h (3 Bft)
23.08.2015 19:38 24,2 C 21,1 C 60 % 0 lf 1003,6 hPa 0,0 l/m 0 min 0 min 23 W/m 10,5 km/h (2 Bft)
23.08.2015 19:40 24,1 C 21,1 C 61 % 0 lf 1003,7 hPa 0,0 l/m 0 min 0 min 23 W/m 12,6 km/h (3 Bft)
23.08.2015 19:42 24,0 C 21,1 C 62 % 0 lf 1003,7 hPa 0,0 l/m 0 min 0 min 23 W/m 14,6 km/h (3 Bft)
23.08.2015 19:44 23,9 C 21,1 C 64 % 0 lf 1003,9 hPa 0,0 l/m 0 min 0 min 23 W/m 18,8 km/h (3 Bft)
23.08.2015 19:46 23,8 C 20,6 C 66 % 0 lf 1003,8 hPa 0,0 l/m 0 min 0 min 23 W/m 31,4 km/h (5 Bft)
23.08.2015 19:48 23,6 C 20,6 C 68 % 0 lf 1003,9 hPa 0,0 l/m 0 min 0 min 22 W/m 18,8 km/h (3 Bft)
23.08.2015 19:50 23,4 C 20,6 C 69 % 0 lf 1003,9 hPa 0,0 l/m 0 min 0 min 21 W/m 12,6 km/h (3 Bft)
23.08.2015 19:52 23,3 C 20,0 C 69 % 0 lf 1004,0 hPa 0,0 l/m 0 min 0 min 21 W/m 18,8 km/h (3 Bft)
23.08.2015 19:54 23,1 C 20,0 C 70 % 0 lf 1004,0 hPa 0,0 l/m 0 min 0 min 21 W/m 23,0 km/h (4 Bft)
23.08.2015 19:56 22,9 C 20,0 C 71 % 0 lf 1004,0 hPa 0,0 l/m 0 min 0 min 21 W/m 16,7 km/h (3 Bft)
23.08.2015 19:58 22,8 C 20,0 C 71 % 0 lf 1004,1 hPa 0,0 l/m 0 min 0 min 19 W/m 16,7 km/h (3 Bft)
23.08.2015 20:00 22,6 C 20,0 C 72 % 0 lf 1004,1 hPa 0,0 l/m 0 min 0 min 19 W/m 14,6 km/h (3 Bft)
23.08.2015 20:02 22,5 C 20,0 C 72 % 0 lf 1004,1 hPa 0,0 l/m 0 min 0 min 17 W/m 14,6 km/h (3 Bft)
23.08.2015 20:04 22,4 C 19,4 C 73 % 0 lf 1004,1 hPa 0,0 l/m 0 min 0 min 16 W/m 18,8 km/h (3 Bft)
23.08.2015 20:06 22,2 C 19,4 C 73 % 0 lf 1004,2 hPa 0,0 l/m 0 min 0 min 14 W/m 20,9 km/h (4 Bft)
23.08.2015 20:08 22,1 C 19,4 C 74 % 0 lf 1004,2 hPa 0,0 l/m 0 min 0 min 14 W/m 16,7 km/h (3 Bft)
23.08.2015 20:10 22,0 C 19,4 C 74 % 0 lf 1004,1 hPa 0,0 l/m 0 min 0 min 13 W/m 16,7 km/h (3 Bft)
23.08.2015 20:12 21,9 C 19,4 C 74 % 0 lf 1004,1 hPa 0,0 l/m 0 min 0 min 12 W/m 16,7 km/h (3 Bft)
23.08.2015 20:14 21,8 C 19,4 C 75 % 0 lf 1004,2 hPa 0,0 l/m 0 min 0 min 12 W/m 14,6 km/h (3 Bft)
23.08.2015 20:16 21,7 C 19,4 C 75 % 0 lf 1004,2 hPa 0,0 l/m 0 min 0 min 11 W/m 14,6 km/h (3 Bft)
23.08.2015 20:18 21,6 C 19,4 C 76 % 0 lf 1004,1 hPa 0,0 l/m 0 min 0 min 11 W/m 10,5 km/h (2 Bft)
23.08.2015 20:20 21,6 C 19,4 C 76 % 0 lf 1004,2 hPa 0,0 l/m 0 min 0 min 9 W/m 12,6 km/h (3 Bft)
23.08.2015 20:22 21,4 C 19,4 C 76 % 0 lf 1004,2 hPa 0,0 l/m 0 min 0 min 9 W/m 16,7 km/h (3 Bft)
23.08.2015 20:24 21,4 C 18,9 C 76 % 0 lf 1004,2 hPa 0,0 l/m 0 min 0 min 7 W/m 12,6 km/h (3 Bft)
23.08.2015 20:26 21,3 C 18,9 C 77 % 0 lf 1004,2 hPa 0,0 l/m 0 min 0 min 7 W/m 12,6 km/h (3 Bft)
23.08.2015 20:28 21,2 C 18,9 C 77 % 0 lf 1004,3 hPa 0,0 l/m 0 min 0 min 5 W/m 14,6 km/h (3 Bft)
23.08.2015 20:30 21,2 C 18,9 C 78 % 0 lf 1004,3 hPa 0,0 l/m 0 min 0 min 5 W/m 14,6 km/h (3 Bft)
23.08.2015 20:32 21,1 C 18,9 C 78 % 0 lf 1004,3 hPa 0,0 l/m 0 min 0 min 5 W/m 12,6 km/h (3 Bft)
23.08.2015 20:34 21,0 C 18,9 C 78 % 0 lf 1004,3 hPa 0,0 l/m 0 min 0 min 0 W/m 12,6 km/h (3 Bft)
23.08.2015 20:36 21,0 C 18,9 C 78 % 0 lf 1004,3 hPa 0,0 l/m 0 min 0 min 0 W/m 12,6 km/h (3 Bft)
23.08.2015 20:38 20,9 C 18,9 C 78 % 0 lf 1004,4 hPa 0,0 l/m 0 min 0 min 0 W/m 10,5 km/h (2 Bft)
23.08.2015 20:40 20,9 C 18,9 C 79 % 0 lf 1004,4 hPa 0,0 l/m 0 min 0 min 0 W/m 18,8 km/h (3 Bft)
23.08.2015 20:42 20,8 C 18,9 C 79 % 0 lf 1004,4 hPa 0,0 l/m 0 min 0 min 0 W/m 12,6 km/h (3 Bft)
23.08.2015 20:44 20,7 C 18,9 C 79 % 0 lf 1004,4 hPa 0,0 l/m 0 min 0 min 0 W/m 12,6 km/h (3 Bft)
23.08.2015 20:46 20,7 C 18,9 C 79 % 0 lf 1004,4 hPa 0,0 l/m 0 min 0 min 0 W/m 14,6 km/h (3 Bft)
23.08.2015 20:48 20,6 C 18,9 C 79 % 0 lf 1004,4 hPa 0,0 l/m 0 min 0 min 0 W/m 16,7 km/h (3 Bft)
23.08.2015 20:50 20,6 C 18,9 C 79 % 0 lf 1004,4 hPa 0,0 l/m 0 min 0 min 0 W/m 16,7 km/h (3 Bft)
23.08.2015 20:52 20,5 C 18,9 C 79 % 0 lf 1004,4 hPa 0,0 l/m 0 min 0 min 0 W/m 12,6 km/h (3 Bft)
23.08.2015 20:54 20,4 C 18,9 C 80 % 0 lf 1004,3 hPa 0,0 l/m 0 min 0 min 0 W/m 8,4 km/h (2 Bft)
23.08.2015 20:56 20,4 C 18,3 C 80 % 0 lf 1004,4 hPa 0,0 l/m 0 min 0 min 0 W/m 16,7 km/h (3 Bft)
23.08.2015 20:58 20,4 C 18,3 C 80 % 0 lf 1004,3 hPa 0,0 l/m 0 min 0 min 0 W/m 14,6 km/h (3 Bft)
23.08.2015 21:00 20,4 C 18,3 C 80 % 0 lf 1004,3 hPa 0,0 l/m 0 min 0 min 0 W/m 12,6 km/h (3 Bft)
23.08.2015 21:02 20,3 C 18,3 C 80 % 0 lf 1004,3 hPa 0,0 l/m 0 min 0 min 0 W/m 8,4 km/h (2 Bft)
23.08.2015 21:04 20,3 C 18,3 C 80 % 0 lf 1004,4 hPa 0,0 l/m 0 min 0 min 0 W/m 10,5 km/h (2 Bft)
23.08.2015 21:06 20,3 C 18,3 C 80 % 0 lf 1004,3 hPa 0,0 l/m 0 min 0 min 0 W/m 12,6 km/h (3 Bft)
23.08.2015 21:08 20,2 C 18,3 C 80 % 0 lf 1004,3 hPa 0,0 l/m 0 min 0 min 0 W/m 10,5 km/h (2 Bft)
23.08.2015 21:10 20,2 C 18,3 C 80 % 0 lf 1004,3 hPa 0,0 l/m 0 min 0 min 0 W/m 12,6 km/h (3 Bft)
23.08.2015 21:12 20,2 C 18,3 C 81 % 0 lf 1004,3 hPa 0,0 l/m 0 min 0 min 0 W/m 12,6 km/h (3 Bft)
23.08.2015 21:14 20,2 C 18,3 C 81 % 0 lf 1004,4 hPa 0,0 l/m 0 min 0 min 0 W/m 8,4 km/h (2 Bft)
23.08.2015 21:16 20,1 C 18,3 C 81 % 0 lf 1004,4 hPa 0,0 l/m 0 min 0 min 0 W/m 10,5 km/h (2 Bft)
23.08.2015 21:18 20,1 C 18,3 C 81 % 0 lf 1004,4 hPa 0,0 l/m 0 min 0 min 0 W/m 8,4 km/h (2 Bft)
23.08.2015 21:20 20,1 C 18,3 C 81 % 0 lf 1004,4 hPa 0,0 l/m 0 min 0 min 0 W/m 12,6 km/h (3 Bft)
23.08.2015 21:22 20,1 C 18,3 C 81 % 0 lf 1004,4 hPa 0,0 l/m 0 min 0 min 0 W/m 8,4 km/h (2 Bft)
23.08.2015 21:24 20,0 C 18,3 C 82 % 0 lf 1004,4 hPa 0,0 l/m 0 min 0 min 0 W/m 8,4 km/h (2 Bft)
23.08.2015 21:26 19,9 C 18,3 C 82 % 0 lf 1004,3 hPa 0,0 l/m 0 min 0 min 0 W/m 8,4 km/h (2 Bft)
23.08.2015 21:28 19,9 C 18,3 C 82 % 0 lf 1004,4 hPa 0,0 l/m 0 min 0 min 0 W/m 8,4 km/h (2 Bft)
23.08.2015 21:30 19,9 C 18,3 C 82 % 0 lf 1004,4 hPa 0,0 l/m 0 min 0 min 0 W/m 6,3 km/h (2 Bft)
23.08.2015 21:32 19,9 C 18,3 C 82 % 2 lf 1004,3 hPa 0,0 l/m 0 min 2 min 0 W/m 6,3 km/h (2 Bft)
23.08.2015 21:34 19,8 C 18,3 C 82 % 1 lf 1004,4 hPa 0,0 l/m 0 min 0 min 0 W/m 2,1 km/h (1 Bft)
23.08.2015 21:36 19,8 C 18,3 C 82 % 0 lf 1004,3 hPa 0,0 l/m 0 min 0 min 0 W/m 2,1 km/h (1 Bft)
23.08.2015 21:38 19,8 C 18,3 C 82 % 0 lf 1004,3 hPa 0,0 l/m 0 min 0 min 0 W/m 4,2 km/h (1 Bft)
23.08.2015 21:40 19,8 C 17,8 C 83 % 0 lf 1004,4 hPa 0,0 l/m 0 min 0 min 0 W/m 4,2 km/h (1 Bft)
23.08.2015 21:42 19,8 C 17,8 C 83 % 4 lf 1004,3 hPa 0,0 l/m 0 min 0 min 0 W/m 4,2 km/h (1 Bft)
23.08.2015 21:44 19,8 C 17,8 C 83 % 3 lf 1004,3 hPa 0,0 l/m 0 min 0 min 0 W/m 4,2 km/h (1 Bft)
23.08.2015 21:46 19,7 C 17,8 C 83 % 2 lf 1004,3 hPa 0,0 l/m 0 min 2 min 0 W/m 4,2 km/h (1 Bft)
23.08.2015 21:48 19,7 C 17,8 C 83 % 14 lf 1004,3 hPa 0,0 l/m 0 min 2 min 0 W/m 4,2 km/h (1 Bft)
23.08.2015 21:50 19,7 C 17,2 C 83 % 15 lf 1004,3 hPa 0,0 l/m 0 min 2 min 0 W/m 4,2 km/h (1 Bft)
23.08.2015 21:52 19,7 C 17,2 C 83 % 15 lf 1004,4 hPa 0,0 l/m 0 min 2 min 0 W/m 4,2 km/h (1 Bft)
23.08.2015 21:54 19,7 C 16,7 C 83 % 15 lf 1004,4 hPa 0,0 l/m 0 min 2 min 0 W/m 4,2 km/h (1 Bft)
23.08.2015 21:56 19,7 C 16,7 C 83 % 15 lf 1004,4 hPa 0,0 l/m 0 min 2 min 0 W/m 4,2 km/h (1 Bft)
23.08.2015 21:58 19,7 C 16,7 C 83 % 15 lf 1004,4 hPa 0,0 l/m 0 min 2 min 0 W/m 6,3 km/h (2 Bft)
23.08.2015 22:00 19,7 C 16,7 C 83 % 15 lf 1004,4 hPa 0,0 l/m 0 min 2 min 0 W/m 4,2 km/h (1 Bft)
23.08.2015 22:02 19,7 C 16,7 C 84 % 15 lf 1004,3 hPa 0,0 l/m 0 min 2 min 0 W/m 6,3 km/h (2 Bft)
23.08.2015 22:04 19,6 C 16,7 C 84 % 15 lf 1004,2 hPa 0,0 l/m 0 min 2 min 0 W/m 2,1 km/h (1 Bft)
23.08.2015 22:06 19,6 C 16,7 C 84 % 15 lf 1004,2 hPa 0,0 l/m 0 min 2 min 0 W/m 4,2 km/h (1 Bft)
23.08.2015 22:08 19,6 C 16,7 C 84 % 15 lf 1004,2 hPa 0,0 l/m 0 min 2 min 0 W/m 2,1 km/h (1 Bft)
23.08.2015 22:10 19,6 C 16,1 C 84 % 15 lf 1004,2 hPa 0,0 l/m 0 min 2 min 0 W/m 2,1 km/h (1 Bft)
23.08.2015 22:12 19,6 C 16,7 C 84 % 15 lf 1004,1 hPa 0,0 l/m 0 min 2 min 0 W/m 2,1 km/h (1 Bft)
23.08.2015 22:14 19,6 C 16,1 C 84 % 15 lf 1004,2 hPa 0,0 l/m 0 min 2 min 0 W/m 4,2 km/h (1 Bft)
23.08.2015 22:16 19,5 C 16,1 C 84 % 15 lf 1004,2 hPa 0,0 l/m 0 min 2 min 0 W/m 4,2 km/h (1 Bft)
23.08.2015 22:18 19,5 C 16,1 C 84 % 15 lf 1004,2 hPa 0,0 l/m 0 min 2 min 0 W/m 2,1 km/h (1 Bft)
23.08.2015 22:20 19,5 C 16,1 C 85 % 15 lf 1004,2 hPa 0,0 l/m 0 min 0 min 0 W/m 4,2 km/h (1 Bft)
23.08.2015 22:22 19,4 C 16,1 C 85 % 15 lf 1004,2 hPa 0,0 l/m 0 min 2 min 0 W/m 4,2 km/h (1 Bft)
23.08.2015 22:24 19,4 C 16,1 C 85 % 15 lf 1004,2 hPa 0,0 l/m 0 min 2 min 0 W/m 2,1 km/h (1 Bft)
23.08.2015 22:26 19,4 C 16,1 C 86 % 15 lf 1004,0 hPa 0,0 l/m 0 min 0 min 0 W/m 2,1 km/h (1 Bft)
23.08.2015 22:28 19,4 C 16,1 C 86 % 15 lf 1004,1 hPa 0,0 l/m 0 min 0 min 0 W/m 0,0 km/h (0 Bft)
23.08.2015 22:30 19,4 C 16,1 C 86 % 15 lf 1004,2 hPa 0,0 l/m 0 min 0 min 0 W/m 0,0 km/h (0 Bft)
23.08.2015 22:32 19,3 C 16,1 C 86 % 15 lf 1004,1 hPa 0,0 l/m 0 min 0 min 0 W/m 0,0 km/h (0 Bft)
23.08.2015 22:34 19,3 C 16,1 C 86 % 15 lf 1004,1 hPa 0,0 l/m 0 min 0 min 0 W/m 2,1 km/h (1 Bft)
23.08.2015 22:36 19,3 C 16,1 C 86 % 15 lf 1004,0 hPa 0,0 l/m 0 min 2 min 0 W/m 2,1 km/h (1 Bft)
23.08.2015 22:38 19,2 C 16,1 C 86 % 15 lf 1003,9 hPa 0,0 l/m 0 min 2 min 0 W/m 2,1 km/h (1 Bft)
23.08.2015 22:40 19,2 C 16,1 C 86 % 15 lf 1004,0 hPa 0,0 l/m 0 min 0 min 0 W/m 2,1 km/h (1 Bft)
23.08.2015 22:42 19,2 C 16,1 C 86 % 15 lf 1004,0 hPa 0,0 l/m 0 min 0 min 0 W/m 2,1 km/h (1 Bft)
23.08.2015 22:44 19,2 C 16,1 C 86 % 15 lf 1004,0 hPa 0,0 l/m 0 min 0 min 0 W/m 2,1 km/h (1 Bft)
23.08.2015 22:46 19,1 C 16,1 C 86 % 15 lf 1004,0 hPa 0,0 l/m 0 min 0 min 0 W/m 4,2 km/h (1 Bft)
23.08.2015 22:48 19,1 C 16,1 C 86 % 15 lf 1004,0 hPa 0,0 l/m 0 min 0 min 0 W/m 4,2 km/h (1 Bft)
23.08.2015 22:50 19,1 C 16,1 C 86 % 15 lf 1004,0 hPa 0,0 l/m 0 min 0 min 0 W/m 4,2 km/h (1 Bft)
23.08.2015 22:52 19,1 C 16,7 C 87 % 15 lf 1004,0 hPa 0,0 l/m 0 min 0 min 0 W/m 2,1 km/h (1 Bft)
23.08.2015 22:54 19,1 C 16,7 C 87 % 15 lf 1003,9 hPa 0,0 l/m 0 min 0 min 0 W/m 2,1 km/h (1 Bft)
23.08.2015 22:56 19,1 C 16,7 C 87 % 15 lf 1003,9 hPa 0,0 l/m 0 min 0 min 0 W/m 2,1 km/h (1 Bft)
23.08.2015 22:58 19,0 C 16,7 C 87 % 15 lf 1003,9 hPa 0,0 l/m 0 min 0 min 0 W/m 4,2 km/h (1 Bft)
23.08.2015 23:00 19,0 C 16,7 C 87 % 15 lf 1004,0 hPa 0,0 l/m 0 min 0 min 0 W/m 2,1 km/h (1 Bft)
23.08.2015 23:02 19,0 C 16,7 C 87 % 15 lf 1003,9 hPa 0,0 l/m 0 min 0 min 0 W/m 4,2 km/h (1 Bft)
23.08.2015 23:04 19,0 C 16,7 C 88 % 15 lf 1003,9 hPa 0,0 l/m 0 min 0 min 0 W/m 6,3 km/h (2 Bft)
23.08.2015 23:06 19,0 C 16,7 C 88 % 15 lf 1003,9 hPa 0,0 l/m 0 min 0 min 0 W/m 6,3 km/h (2 Bft)
23.08.2015 23:08 18,9 C 16,7 C 88 % 14 lf 1003,9 hPa 0,0 l/m 0 min 0 min 0 W/m 6,3 km/h (2 Bft)
23.08.2015 23:10 18,9 C 16,7 C 88 % 13 lf 1003,8 hPa 0,0 l/m 0 min 0 min 0 W/m 4,2 km/h (1 Bft)
23.08.2015 23:12 18,9 C 16,7 C 88 % 10 lf 1003,9 hPa 0,0 l/m 0 min 0 min 0 W/m 4,2 km/h (1 Bft)
23.08.2015 23:14 18,9 C 16,7 C 88 % 7 lf 1003,9 hPa 0,0 l/m 0 min 0 min 0 W/m 2,1 km/h (1 Bft)
23.08.2015 23:16 18,9 C 16,7 C 88 % 4 lf 1003,9 hPa 0,0 l/m 0 min 0 min 0 W/m 4,2 km/h (1 Bft)
23.08.2015 23:18 18,9 C 16,7 C 88 % 3 lf 1003,8 hPa 0,0 l/m 0 min 0 min 0 W/m 4,2 km/h (1 Bft)
23.08.2015 23:20 18,9 C 16,7 C 88 % 2 lf 1003,9 hPa 0,0 l/m 0 min 0 min 0 W/m 4,2 km/h (1 Bft)
23.08.2015 23:22 18,9 C 16,1 C 89 % 1 lf 1003,9 hPa 0,0 l/m 0 min 0 min 0 W/m 4,2 km/h (1 Bft)
23.08.2015 23:24 18,9 C 16,1 C 89 % 0 lf 1003,8 hPa 0,0 l/m 0 min 0 min 0 W/m 4,2 km/h (1 Bft)
23.08.2015 23:26 18,9 C 16,1 C 89 % 0 lf 1003,8 hPa 0,0 l/m 0 min 0 min 0 W/m 4,2 km/h (1 Bft)
23.08.2015 23:28 18,8 C 16,1 C 89 % 0 lf 1003,8 hPa 0,0 l/m 0 min 0 min 0 W/m 4,2 km/h (1 Bft)
23.08.2015 23:30 18,8 C 16,1 C 89 % 0 lf 1003,8 hPa 0,0 l/m 0 min 0 min 0 W/m 4,2 km/h (1 Bft)
23.08.2015 23:32 18,8 C 16,1 C 89 % 0 lf 1003,8 hPa 0,0 l/m 0 min 0 min 0 W/m 2,1 km/h (1 Bft)
23.08.2015 23:34 18,8 C 16,1 C 89 % 0 lf 1003,8 hPa 0,0 l/m 0 min 2 min 0 W/m 4,2 km/h (1 Bft)
23.08.2015 23:36 18,8 C 16,1 C 89 % 12 lf 1003,8 hPa 0,0 l/m 0 min 2 min 0 W/m 4,2 km/h (1 Bft)
23.08.2015 23:38 18,8 C 16,1 C 90 % 15 lf 1003,8 hPa 0,2 l/m 0 min 2 min 0 W/m 6,3 km/h (2 Bft)
23.08.2015 23:40 18,7 C 16,1 C 90 % 15 lf 1003,8 hPa 0,0 l/m 0 min 2 min 0 W/m 6,3 km/h (2 Bft)
23.08.2015 23:42 18,7 C 16,1 C 90 % 15 lf 1003,8 hPa 0,0 l/m 0 min 2 min 0 W/m 8,4 km/h (2 Bft)
23.08.2015 23:44 18,7 C 16,1 C 90 % 15 lf 1003,9 hPa 0,0 l/m 0 min 0 min 0 W/m 8,4 km/h (2 Bft)
23.08.2015 23:46 18,7 C 16,1 C 90 % 15 lf 1003,8 hPa 0,0 l/m 0 min 2 min 0 W/m 4,2 km/h (1 Bft)
23.08.2015 23:48 18,7 C 16,1 C 90 % 15 lf 1003,8 hPa 0,0 l/m 0 min 0 min 0 W/m 4,2 km/h (1 Bft)
23.08.2015 23:50 18,7 C 16,1 C 90 % 15 lf 1003,8 hPa 0,0 l/m 0 min 2 min 0 W/m 4,2 km/h (1 Bft)
23.08.2015 23:52 18,7 C 16,1 C 90 % 15 lf 1003,8 hPa 0,0 l/m 0 min 2 min 0 W/m 4,2 km/h (1 Bft)
23.08.2015 23:54 18,7 C 16,1 C 91 % 15 lf 1003,8 hPa 0,0 l/m 0 min 2 min 0 W/m 4,2 km/h (1 Bft)
23.08.2015 23:56 18,7 C 16,1 C 91 % 15 lf 1003,8 hPa 0,0 l/m 0 min 0 min 0 W/m 4,2 km/h (1 Bft)
23.08.2015 23:58 18,7 C 16,1 C 91 % 15 lf 1003,8 hPa 0,0 l/m 0 min 0 min 0 W/m 6,3 km/h (2 Bft)
_ Min-Zeit 07:26 06:08 14:40 00:00 19:08 - - - - 00:02
Minimum _ 12,8 C 11,1 C 41 % 0 lf 1002,7 hPa - - - - 0,0 km/h (0 Bft)
_ Max-Zeit 14:42 11:50 23:54 21:50 00:00 23:38 07:12 21:32 13:46 13:06
Maximum _ 27,9 C 29,4 C 91 % 15 lf 1013,7 hPa 0,2 l/m 2 min 2 min 819 W/m 56,5 km/h
O-SO (7 Bft)
Durchschnitt _ 20,6 C 19,2 C 65 % 1 lf 1007,5 hPa #0,2 l/m #8:38 h #1:02 h 361 W/m 17,4 km/h (3 Bft)
© 2015 W. Hausmann